<?xml version='1.0' encoding='UTF-8'?><gpx version="1.1" creator="JPX - https://github.com/jenetics/jpx" xmlns="http://www.topografix.com/GPX/1/1"><trk><trkseg><trkpt lat="48.93606370434873" lon="2.373558945307717"><ele>34.0</ele><time>2026-03-30T14:37:59.999Z</time></trkpt><trkpt lat="48.93612005372005" lon="2.373618693874771"><ele>34.0</ele><time>2026-03-30T14:38:08.999Z</time></trkpt><trkpt lat="48.93615221044679" lon="2.3737787679639695"><ele>34.0</ele><time>2026-03-30T14:38:10.999Z</time></trkpt><trkpt lat="48.93616678211238" lon="2.373881701083036"><ele>34.0</ele><time>2026-03-30T14:38:12.999Z</time></trkpt><trkpt lat="48.93615896988206" lon="2.373981435403834"><ele>34.0</ele><time>2026-03-30T14:38:15Z</time></trkpt><trkpt lat="48.9361501646035" lon="2.374097510942277"><ele>34.0</ele><time>2026-03-30T14:38:17Z</time></trkpt><trkpt lat="48.936164912665355" lon="2.3742149943467847"><ele>34.0</ele><time>2026-03-30T14:38:20Z</time></trkpt><trkpt lat="48.93622381495374" lon="2.37427712101813"><ele>34.0</ele><time>2026-03-30T14:38:23Z</time></trkpt><trkpt lat="48.93626008472165" lon="2.374409595023108"><ele>34.0</ele><time>2026-03-30T14:38:25Z</time></trkpt><trkpt lat="48.93626139637952" lon="2.3745173910869575"><ele>34.0</ele><time>2026-03-30T14:38:26Z</time></trkpt><trkpt lat="48.936261269509004" lon="2.3746486850202198"><ele>34.0</ele><time>2026-03-30T14:38:27Z</time></trkpt><trkpt lat="48.9362652656464" lon="2.3748147576434517"><ele>34.0</ele><time>2026-03-30T14:38:28Z</time></trkpt><trkpt lat="48.93627895993529" lon="2.3749880270054593"><ele>33.8</ele><time>2026-03-30T14:38:29Z</time></trkpt><trkpt lat="48.936290607021476" lon="2.375172076113155"><ele>33.599999999999994</ele><time>2026-03-30T14:38:30Z</time></trkpt><trkpt lat="48.9363103079624" lon="2.375353439343775"><ele>33.4</ele><time>2026-03-30T14:38:31Z</time></trkpt><trkpt lat="48.93633283586654" lon="2.375506892827717"><ele>33.199999999999996</ele><time>2026-03-30T14:38:32Z</time></trkpt><trkpt lat="48.93633495354935" lon="2.3756533029331135"><ele>33.0</ele><time>2026-03-30T14:38:33Z</time></trkpt><trkpt lat="48.93634973840891" lon="2.375786228212803"><ele>32.714285714285715</ele><time>2026-03-30T14:38:34Z</time></trkpt><trkpt lat="48.93637876123278" lon="2.3759016672216378"><ele>32.42857142857143</ele><time>2026-03-30T14:38:35Z</time></trkpt><trkpt lat="48.93637532597679" lon="2.376016277747783"><ele>32.142857142857146</ele><time>2026-03-30T14:38:36Z</time></trkpt><trkpt lat="48.93640358848781" lon="2.3761249359539645"><ele>31.857142857142858</ele><time>2026-03-30T14:38:37Z</time></trkpt><trkpt lat="48.93639626756273" lon="2.3762279170899947"><ele>31.571428571428577</ele><time>2026-03-30T14:38:38Z</time></trkpt><trkpt lat="48.93640662202277" lon="2.3763280970980505"><ele>31.28571428571429</ele><time>2026-03-30T14:38:39Z</time></trkpt><trkpt lat="48.93641907837009" lon="2.3764481215627042"><ele>31.0</ele><time>2026-03-30T14:38:40Z</time></trkpt><trkpt lat="48.93643223960996" lon="2.376558894294231"><ele>31.000000000000004</ele><time>2026-03-30T14:38:41Z</time></trkpt><trkpt lat="48.93644378027514" lon="2.3766693876975475"><ele>31.0</ele><time>2026-03-30T14:38:42Z</time></trkpt><trkpt lat="48.93645615790044" lon="2.3767861645897153"><ele>31.0</ele><time>2026-03-30T14:38:43Z</time></trkpt><trkpt lat="48.93647057647041" lon="2.3769004595286516"><ele>31.0</ele><time>2026-03-30T14:38:44Z</time></trkpt><trkpt lat="48.93648513373137" lon="2.377020830839286"><ele>31.000000000000004</ele><time>2026-03-30T14:38:45Z</time></trkpt><trkpt lat="48.93650468651008" lon="2.37715848710409"><ele>31.0</ele><time>2026-03-30T14:38:47Z</time></trkpt><trkpt lat="48.936491014042936" lon="2.377268419846612"><ele>30.8</ele><time>2026-03-30T14:38:51Z</time></trkpt><trkpt lat="48.93639652375415" lon="2.3773266371410404"><ele>30.6</ele><time>2026-03-30T14:38:52Z</time></trkpt><trkpt lat="48.93631784547456" lon="2.3773692513869364"><ele>30.4</ele><time>2026-03-30T14:38:53Z</time></trkpt><trkpt lat="48.93623855269365" lon="2.377420515524537"><ele>30.2</ele><time>2026-03-30T14:38:54Z</time></trkpt><trkpt lat="48.93615679222052" lon="2.377486832836852"><ele>30.0</ele><time>2026-03-30T14:38:55Z</time></trkpt><trkpt lat="48.93606966562304" lon="2.377541702237616"><ele>30.0</ele><time>2026-03-30T14:38:56Z</time></trkpt><trkpt lat="48.93599453649051" lon="2.377593759135078"><ele>30.0</ele><time>2026-03-30T14:38:57Z</time></trkpt><trkpt lat="48.93591719526552" lon="2.377648528053945"><ele>30.0</ele><time>2026-03-30T14:38:58Z</time></trkpt><trkpt lat="48.93583644094199" lon="2.3777018893334794"><ele>30.0</ele><time>2026-03-30T14:38:59Z</time></trkpt><trkpt lat="48.93575827485783" lon="2.3777514653604337"><ele>30.0</ele><time>2026-03-30T14:38:59.999Z</time></trkpt><trkpt lat="48.9356858527819" lon="2.377803059748237"><ele>30.0</ele><time>2026-03-30T14:39:00.999Z</time></trkpt><trkpt lat="48.93561527281339" lon="2.3778536928501364"><ele>30.0</ele><time>2026-03-30T14:39:01.999Z</time></trkpt><trkpt lat="48.93554847139912" lon="2.377900234179776"><ele>30.0</ele><time>2026-03-30T14:39:02.999Z</time></trkpt><trkpt lat="48.93548450695492" lon="2.377932785852769"><ele>30.0</ele><time>2026-03-30T14:39:03.999Z</time></trkpt><trkpt lat="48.935411665615995" lon="2.3779104843189227"><ele>30.0</ele><time>2026-03-30T14:39:04.999Z</time></trkpt><trkpt lat="48.93534130086619" lon="2.3778529098987384"><ele>30.0</ele><time>2026-03-30T14:39:05.999Z</time></trkpt><trkpt lat="48.93526305536337" lon="2.377787407252546"><ele>30.0</ele><time>2026-03-30T14:39:06.999Z</time></trkpt><trkpt lat="48.93517787938598" lon="2.37772784670258"><ele>30.0</ele><time>2026-03-30T14:39:07.999Z</time></trkpt><trkpt lat="48.935092733733704" lon="2.3776793488114545"><ele>30.0</ele><time>2026-03-30T14:39:08.999Z</time></trkpt><trkpt lat="48.93500690318796" lon="2.377640093162534"><ele>30.0</ele><time>2026-03-30T14:39:09.999Z</time></trkpt><trkpt lat="48.934924899404955" lon="2.377594863754627"><ele>30.0</ele><time>2026-03-30T14:39:10.999Z</time></trkpt><trkpt lat="48.934845871874664" lon="2.377553297708824"><ele>30.0</ele><time>2026-03-30T14:39:11.999Z</time></trkpt><trkpt lat="48.93476159998432" lon="2.3774988220203057"><ele>30.0</ele><time>2026-03-30T14:39:12.999Z</time></trkpt><trkpt lat="48.93468296987006" lon="2.3774480401209814"><ele>30.333333333333332</ele><time>2026-03-30T14:39:13.999Z</time></trkpt><trkpt lat="48.93460284966863" lon="2.3773940288753836"><ele>30.666666666666664</ele><time>2026-03-30T14:39:14.999Z</time></trkpt><trkpt lat="48.934520459991624" lon="2.377338552992561"><ele>31.0</ele><time>2026-03-30T14:39:15.999Z</time></trkpt><trkpt lat="48.93443905612214" lon="2.3772893173768965"><ele>31.333333333333332</ele><time>2026-03-30T14:39:16.999Z</time></trkpt><trkpt lat="48.934357352976605" lon="2.377237860956238"><ele>31.666666666666664</ele><time>2026-03-30T14:39:17.999Z</time></trkpt><trkpt lat="48.934276185123345" lon="2.37719012744411"><ele>32.0</ele><time>2026-03-30T14:39:18.999Z</time></trkpt><trkpt lat="48.934202675403846" lon="2.3771419847028477"><ele>32.5</ele><time>2026-03-30T14:39:19.999Z</time></trkpt><trkpt lat="48.934125657763154" lon="2.377097518228071"><ele>33.0</ele><time>2026-03-30T14:39:20.999Z</time></trkpt><trkpt lat="48.93405190977476" lon="2.37705755421389"><ele>33.5</ele><time>2026-03-30T14:39:21.999Z</time></trkpt><trkpt lat="48.93398217123605" lon="2.377019473212474"><ele>34.0</ele><time>2026-03-30T14:39:22.999Z</time></trkpt><trkpt lat="48.9339027640122" lon="2.376973596985097"><ele>34.5</ele><time>2026-03-30T14:39:31.999Z</time></trkpt><trkpt lat="48.933793845768676" lon="2.376901889862904"><ele>35.0</ele><time>2026-03-30T14:39:33.999Z</time></trkpt><trkpt lat="48.933716028681275" lon="2.37685762814204"><ele>35.0</ele><time>2026-03-30T14:39:34.999Z</time></trkpt><trkpt lat="48.93362241781116" lon="2.3768248529124674"><ele>35.0</ele><time>2026-03-30T14:39:35.999Z</time></trkpt><trkpt lat="48.93352705931597" lon="2.376816481597812"><ele>35.0</ele><time>2026-03-30T14:39:36.999Z</time></trkpt><trkpt lat="48.93342762008676" lon="2.3768312465858448"><ele>35.0</ele><time>2026-03-30T14:39:37.999Z</time></trkpt><trkpt lat="48.933330936883245" lon="2.3768484480032677"><ele>35.0</ele><time>2026-03-30T14:39:38.999Z</time></trkpt><trkpt lat="48.9332358354507" lon="2.3768512255682093"><ele>34.666666666666664</ele><time>2026-03-30T14:39:39.999Z</time></trkpt><trkpt lat="48.93314817704035" lon="2.376870995045418"><ele>34.33333333333333</ele><time>2026-03-30T14:39:40.999Z</time></trkpt><trkpt lat="48.933065404867804" lon="2.3768881825504162"><ele>34.0</ele><time>2026-03-30T14:39:41.999Z</time></trkpt><trkpt lat="48.93298218706981" lon="2.3768937293894443"><ele>33.666666666666664</ele><time>2026-03-30T14:39:42.999Z</time></trkpt><trkpt lat="48.93289952121177" lon="2.376900889350982"><ele>33.333333333333336</ele><time>2026-03-30T14:39:43.999Z</time></trkpt><trkpt lat="48.93281803651853" lon="2.3769081558333065"><ele>33.0</ele><time>2026-03-30T14:39:44.999Z</time></trkpt><trkpt lat="48.93272670476029" lon="2.376897850624125"><ele>33.0</ele><time>2026-03-30T14:39:45.999Z</time></trkpt><trkpt lat="48.93264210561996" lon="2.376828454143396"><ele>33.0</ele><time>2026-03-30T14:39:46.999Z</time></trkpt><trkpt lat="48.932555411346" lon="2.3767888786157463"><ele>33.0</ele><time>2026-03-30T14:39:47.999Z</time></trkpt><trkpt lat="48.93248565854826" lon="2.3767676788092156"><ele>33.0</ele><time>2026-03-30T14:39:48.999Z</time></trkpt><trkpt lat="48.93237424677454" lon="2.3767167161990495"><ele>33.0</ele><time>2026-03-30T14:39:50.999Z</time></trkpt><trkpt lat="48.932311032484975" lon="2.376670790303683"><ele>33.0</ele><time>2026-03-30T14:39:52.999Z</time></trkpt><trkpt lat="48.932232620976194" lon="2.376636334807919"><ele>33.199999999999996</ele><time>2026-03-30T14:41:15.999Z</time></trkpt><trkpt lat="48.932177714254" lon="2.3765845524642875"><ele>33.4</ele><time>2026-03-30T14:41:17.999Z</time></trkpt><trkpt lat="48.93219929429584" lon="2.3764586766482014"><ele>33.599999999999994</ele><time>2026-03-30T14:41:18.999Z</time></trkpt><trkpt lat="48.93222680882272" lon="2.376336013108074"><ele>33.8</ele><time>2026-03-30T14:41:19.999Z</time></trkpt><trkpt lat="48.93227324662856" lon="2.376188469507928"><ele>34.0</ele><time>2026-03-30T14:41:20.999Z</time></trkpt><trkpt lat="48.93231925074399" lon="2.3760295314985003"><ele>34.25</ele><time>2026-03-30T14:41:21.999Z</time></trkpt><trkpt lat="48.932362581946784" lon="2.375855907199412"><ele>34.5</ele><time>2026-03-30T14:41:22.999Z</time></trkpt><trkpt lat="48.932405149291974" lon="2.375693156257551"><ele>34.75</ele><time>2026-03-30T14:41:23.999Z</time></trkpt><trkpt lat="48.93245392092157" lon="2.3755268791211646"><ele>35.0</ele><time>2026-03-30T14:41:24.999Z</time></trkpt><trkpt lat="48.93250794755544" lon="2.375359693256192"><ele>35.5</ele><time>2026-03-30T14:41:25.999Z</time></trkpt><trkpt lat="48.932562077882714" lon="2.375198148486344"><ele>36.0</ele><time>2026-03-30T14:41:26.999Z</time></trkpt><trkpt lat="48.932614363858754" lon="2.375041507981155"><ele>36.5</ele><time>2026-03-30T14:41:27.999Z</time></trkpt><trkpt lat="48.932666221305595" lon="2.374893168603411"><ele>37.0</ele><time>2026-03-30T14:41:28.999Z</time></trkpt><trkpt lat="48.93271820213725" lon="2.3747427857117938"><ele>36.75</ele><time>2026-03-30T14:41:29.999Z</time></trkpt><trkpt lat="48.93277076299742" lon="2.374587921283703"><ele>36.5</ele><time>2026-03-30T14:41:30.999Z</time></trkpt><trkpt lat="48.93282051237502" lon="2.3744329700155378"><ele>36.25</ele><time>2026-03-30T14:41:31.999Z</time></trkpt><trkpt lat="48.932872509574814" lon="2.374281400379862"><ele>36.0</ele><time>2026-03-30T14:41:32.999Z</time></trkpt><trkpt lat="48.932926591687554" lon="2.3741315722944054"><ele>36.0</ele><time>2026-03-30T14:41:33.999Z</time></trkpt><trkpt lat="48.93297894405299" lon="2.3739835844576254"><ele>36.0</ele><time>2026-03-30T14:41:34.999Z</time></trkpt><trkpt lat="48.933024637194784" lon="2.373837124153212"><ele>36.0</ele><time>2026-03-30T14:41:35.999Z</time></trkpt><trkpt lat="48.933072858083314" lon="2.3736911314212956"><ele>36.0</ele><time>2026-03-30T14:41:36.999Z</time></trkpt><trkpt lat="48.93311782049257" lon="2.3735585541870634"><ele>36.0</ele><time>2026-03-30T14:41:37.999Z</time></trkpt><trkpt lat="48.933159491380714" lon="2.373438342629786"><ele>35.833333333333336</ele><time>2026-03-30T14:41:38.999Z</time></trkpt><trkpt lat="48.93319570005196" lon="2.3733297593900087"><ele>35.666666666666664</ele><time>2026-03-30T14:41:39.999Z</time></trkpt><trkpt lat="48.93322762223416" lon="2.3732255273251037"><ele>35.5</ele><time>2026-03-30T14:41:40.999Z</time></trkpt><trkpt lat="48.93325975234484" lon="2.373129128504737"><ele>35.33333333333333</ele><time>2026-03-30T14:41:41.999Z</time></trkpt><trkpt lat="48.933290996239855" lon="2.373036885166885"><ele>35.166666666666664</ele><time>2026-03-30T14:41:42.999Z</time></trkpt><trkpt lat="48.93333048503921" lon="2.372891731050114"><ele>35.0</ele><time>2026-03-30T14:41:44.999Z</time></trkpt><trkpt lat="48.93335290456317" lon="2.372799078586726"><ele>35.2</ele><time>2026-03-30T14:41:46.999Z</time></trkpt><trkpt lat="48.933396957987014" lon="2.37267979976977"><ele>35.4</ele><time>2026-03-30T14:42:18.999Z</time></trkpt><trkpt lat="48.93344242955544" lon="2.3724878770923654"><ele>35.6</ele><time>2026-03-30T14:42:20.998Z</time></trkpt><trkpt lat="48.9334622668925" lon="2.372346895028749"><ele>35.8</ele><time>2026-03-30T14:42:21.998Z</time></trkpt><trkpt lat="48.93348182112077" lon="2.372206140992799"><ele>36.0</ele><time>2026-03-30T14:42:22.998Z</time></trkpt><trkpt lat="48.9335012609925" lon="2.3720772707065643"><ele>36.4</ele><time>2026-03-30T14:42:23.998Z</time></trkpt><trkpt lat="48.93351969233287" lon="2.3719435875988175"><ele>36.8</ele><time>2026-03-30T14:42:24.998Z</time></trkpt><trkpt lat="48.933533792156986" lon="2.3718282860055653"><ele>37.199999999999996</ele><time>2026-03-30T14:42:26Z</time></trkpt><trkpt lat="48.93355620526011" lon="2.371720734870553"><ele>37.6</ele><time>2026-03-30T14:42:27Z</time></trkpt><trkpt lat="48.933598375449364" lon="2.3715576166363324"><ele>38.0</ele><time>2026-03-30T14:42:29Z</time></trkpt><trkpt lat="48.93348236126056" lon="2.371432204900254"><ele>38.0</ele><time>2026-03-30T14:42:32Z</time></trkpt><trkpt lat="48.933389608964326" lon="2.3714832688888356"><ele>38.0</ele><time>2026-03-30T14:42:47Z</time></trkpt><trkpt lat="48.933352871219135" lon="2.371562772411172"><ele>38.0</ele><time>2026-03-30T14:42:48Z</time></trkpt><trkpt lat="48.933326640909" lon="2.371687188998354"><ele>38.0</ele><time>2026-03-30T14:42:49Z</time></trkpt><trkpt lat="48.933295407707554" lon="2.3718390526453006"><ele>38.0</ele><time>2026-03-30T14:42:50Z</time></trkpt><trkpt lat="48.93325373016651" lon="2.372013127960487"><ele>37.75</ele><time>2026-03-30T14:42:51Z</time></trkpt><trkpt lat="48.933211929837036" lon="2.372187155828023"><ele>37.5</ele><time>2026-03-30T14:42:52Z</time></trkpt><trkpt lat="48.93316951509249" lon="2.37236370911814"><ele>37.25</ele><time>2026-03-30T14:42:53Z</time></trkpt><trkpt lat="48.93310941988504" lon="2.3725652811690123"><ele>37.0</ele><time>2026-03-30T14:42:54Z</time></trkpt><trkpt lat="48.93305714040356" lon="2.372734051360197"><ele>36.5</ele><time>2026-03-30T14:42:55Z</time></trkpt><trkpt lat="48.93301037740412" lon="2.3729036104020595"><ele>36.0</ele><time>2026-03-30T14:42:56Z</time></trkpt><trkpt lat="48.93297059651309" lon="2.3730676686965038"><ele>35.5</ele><time>2026-03-30T14:42:57Z</time></trkpt><trkpt lat="48.93292654100609" lon="2.373222514760556"><ele>35.0</ele><time>2026-03-30T14:42:58Z</time></trkpt><trkpt lat="48.93288543442716" lon="2.373369477265851"><ele>34.8</ele><time>2026-03-30T14:42:59Z</time></trkpt><trkpt lat="48.93285025891967" lon="2.373504935962488"><ele>34.6</ele><time>2026-03-30T14:43:00Z</time></trkpt><trkpt lat="48.9328107568122" lon="2.3736501029133965"><ele>34.4</ele><time>2026-03-30T14:43:01Z</time></trkpt><trkpt lat="48.932771896545056" lon="2.3737931424504004"><ele>34.2</ele><time>2026-03-30T14:43:02Z</time></trkpt><trkpt lat="48.93273259186728" lon="2.3739358754087703"><ele>34.0</ele><time>2026-03-30T14:43:03Z</time></trkpt><trkpt lat="48.93269114407723" lon="2.374084170728323"><ele>34.2</ele><time>2026-03-30T14:43:04Z</time></trkpt><trkpt lat="48.93265028917779" lon="2.3742342731408344"><ele>34.4</ele><time>2026-03-30T14:43:05Z</time></trkpt><trkpt lat="48.93261191426163" lon="2.3743725227790944"><ele>34.6</ele><time>2026-03-30T14:43:06Z</time></trkpt><trkpt lat="48.93257631544292" lon="2.3745095530178317"><ele>34.8</ele><time>2026-03-30T14:43:07Z</time></trkpt><trkpt lat="48.932538154865" lon="2.374647381208184"><ele>35.0</ele><time>2026-03-30T14:43:08Z</time></trkpt><trkpt lat="48.932493246703984" lon="2.3747720752985906"><ele>35.2</ele><time>2026-03-30T14:43:09Z</time></trkpt><trkpt lat="48.93243849835699" lon="2.374869262936368"><ele>35.4</ele><time>2026-03-30T14:43:10Z</time></trkpt><trkpt lat="48.93236618210673" lon="2.374927839108968"><ele>35.6</ele><time>2026-03-30T14:43:11Z</time></trkpt><trkpt lat="48.93227507444333" lon="2.3749810287284387"><ele>35.8</ele><time>2026-03-30T14:43:12Z</time></trkpt><trkpt lat="48.93218104681901" lon="2.3750129731200076"><ele>36.0</ele><time>2026-03-30T14:43:13Z</time></trkpt><trkpt lat="48.93208333674076" lon="2.375001028334017"><ele>36.0</ele><time>2026-03-30T14:43:14Z</time></trkpt><trkpt lat="48.931994067967224" lon="2.3749378552253284"><ele>36.0</ele><time>2026-03-30T14:43:15Z</time></trkpt><trkpt lat="48.93191417604075" lon="2.3748415006841173"><ele>36.0</ele><time>2026-03-30T14:43:16Z</time></trkpt><trkpt lat="48.93184772506434" lon="2.3747219412783087"><ele>36.0</ele><time>2026-03-30T14:43:17Z</time></trkpt><trkpt lat="48.931805238124014" lon="2.374575007270611"><ele>36.0</ele><time>2026-03-30T14:43:18Z</time></trkpt><trkpt lat="48.93179505588658" lon="2.374419775275731"><ele>35.8</ele><time>2026-03-30T14:43:19Z</time></trkpt><trkpt lat="48.93181076196068" lon="2.374279364984562"><ele>35.6</ele><time>2026-03-30T14:43:19.999Z</time></trkpt><trkpt lat="48.9318529227211" lon="2.374144827962018"><ele>35.4</ele><time>2026-03-30T14:43:20.999Z</time></trkpt><trkpt lat="48.93192758246226" lon="2.3740296961055325"><ele>35.2</ele><time>2026-03-30T14:43:21.999Z</time></trkpt><trkpt lat="48.93201574131553" lon="2.3739474387099837"><ele>35.0</ele><time>2026-03-30T14:43:22.999Z</time></trkpt><trkpt lat="48.93209588038063" lon="2.3738950676997335"><ele>35.0</ele><time>2026-03-30T14:43:23.999Z</time></trkpt><trkpt lat="48.932211002083726" lon="2.373891631434519"><ele>35.0</ele><time>2026-03-30T14:43:24.999Z</time></trkpt><trkpt lat="48.93234145285173" lon="2.373966511381389"><ele>35.0</ele><time>2026-03-30T14:43:25.999Z</time></trkpt><trkpt lat="48.93237654004894" lon="2.374209200850043"><ele>35.0</ele><time>2026-03-30T14:43:26.999Z</time></trkpt><trkpt lat="48.932448807097394" lon="2.3743852951115665"><ele>35.0</ele><time>2026-03-30T14:43:27.999Z</time></trkpt><trkpt lat="48.93249689261346" lon="2.3745917112879193"><ele>35.0</ele><time>2026-03-30T14:43:28.999Z</time></trkpt><trkpt lat="48.93253540006644" lon="2.3748188253652542"><ele>35.0</ele><time>2026-03-30T14:43:29.999Z</time></trkpt><trkpt lat="48.93270272858447" lon="2.375044352912906"><ele>34.666666666666664</ele><time>2026-03-30T14:43:30.999Z</time></trkpt><trkpt lat="48.932755256674405" lon="2.3753095966575466"><ele>34.333333333333336</ele><time>2026-03-30T14:43:31.999Z</time></trkpt><trkpt lat="48.932809927337914" lon="2.37559003782573"><ele>34.0</ele><time>2026-03-30T14:43:32.999Z</time></trkpt><trkpt lat="48.93285863738777" lon="2.3758504131860043"><ele>34.0</ele><time>2026-03-30T14:43:33.999Z</time></trkpt><trkpt lat="48.932911843948474" lon="2.376128905905927"><ele>34.0</ele><time>2026-03-30T14:43:34.999Z</time></trkpt><trkpt lat="48.93298536800417" lon="2.3765136150158974"><ele>34.0</ele><time>2026-03-30T14:43:35.999Z</time></trkpt><trkpt lat="48.93309481967602" lon="2.3763529093804485"><ele>34.0</ele><time>2026-03-30T14:43:36.999Z</time></trkpt><trkpt lat="48.93316264062089" lon="2.3767051968131114"><ele>34.0</ele><time>2026-03-30T14:43:37.999Z</time></trkpt><trkpt lat="48.93321800634006" lon="2.3770543367612627"><ele>33.66666666666667</ele><time>2026-03-30T14:43:38.999Z</time></trkpt><trkpt lat="48.933253755453656" lon="2.377378041354237"><ele>33.333333333333336</ele><time>2026-03-30T14:43:39.999Z</time></trkpt><trkpt lat="48.93329717726923" lon="2.377675172617469"><ele>33.0</ele><time>2026-03-30T14:43:40.999Z</time></trkpt><trkpt lat="48.93334342799564" lon="2.377984113820728"><ele>33.0</ele><time>2026-03-30T14:43:41.999Z</time></trkpt><trkpt lat="48.93338209900933" lon="2.3782927159286253"><ele>33.0</ele><time>2026-03-30T14:43:42.999Z</time></trkpt><trkpt lat="48.933417557984306" lon="2.3785904487647826"><ele>33.0</ele><time>2026-03-30T14:43:43.999Z</time></trkpt><trkpt lat="48.93345677049238" lon="2.3788904207231036"><ele>32.666666666666664</ele><time>2026-03-30T14:43:44.999Z</time></trkpt><trkpt lat="48.93349392033108" lon="2.379202502235047"><ele>32.33333333333333</ele><time>2026-03-30T14:43:45.999Z</time></trkpt><trkpt lat="48.93352938230113" lon="2.3795142325008896"><ele>32.0</ele><time>2026-03-30T14:43:46.999Z</time></trkpt><trkpt lat="48.93356058982553" lon="2.379822051711113"><ele>32.0</ele><time>2026-03-30T14:43:47.999Z</time></trkpt><trkpt lat="48.93359170645106" lon="2.3801331930514658"><ele>32.0</ele><time>2026-03-30T14:43:48.999Z</time></trkpt><trkpt lat="48.93362304905292" lon="2.3804451345973514"><ele>32.0</ele><time>2026-03-30T14:43:49.999Z</time></trkpt><trkpt lat="48.9336549268586" lon="2.3807643224813915"><ele>32.33333333333333</ele><time>2026-03-30T14:43:50.999Z</time></trkpt><trkpt lat="48.933683998180705" lon="2.381081941589351"><ele>32.666666666666664</ele><time>2026-03-30T14:43:51.999Z</time></trkpt><trkpt lat="48.933709929676084" lon="2.3814061428231517"><ele>33.0</ele><time>2026-03-30T14:43:52.999Z</time></trkpt><trkpt lat="48.93373608421768" lon="2.3817373653999128"><ele>33.333333333333336</ele><time>2026-03-30T14:43:53.999Z</time></trkpt><trkpt lat="48.93375996055389" lon="2.382072509081239"><ele>33.66666666666667</ele><time>2026-03-30T14:43:54.999Z</time></trkpt><trkpt lat="48.93377732821879" lon="2.3824053297135106"><ele>34.0</ele><time>2026-03-30T14:43:55.999Z</time></trkpt><trkpt lat="48.93379626043587" lon="2.382737556340609"><ele>33.0</ele><time>2026-03-30T14:43:56.999Z</time></trkpt><trkpt lat="48.93381588570195" lon="2.3830816058021744"><ele>32.0</ele><time>2026-03-30T14:43:57.999Z</time></trkpt><trkpt lat="48.93383103475955" lon="2.383416983697637"><ele>31.0</ele><time>2026-03-30T14:43:58.999Z</time></trkpt><trkpt lat="48.9338416496981" lon="2.3837620087664284"><ele>33.0</ele><time>2026-03-30T14:43:59.999Z</time></trkpt><trkpt lat="48.93385428140131" lon="2.3841023233677303"><ele>35.0</ele><time>2026-03-30T14:44:00.999Z</time></trkpt><trkpt lat="48.93386759392963" lon="2.384446182990339"><ele>35.0</ele><time>2026-03-30T14:44:01.999Z</time></trkpt><trkpt lat="48.93387829556781" lon="2.3847919033209273"><ele>35.0</ele><time>2026-03-30T14:44:02.999Z</time></trkpt><trkpt lat="48.933878822345136" lon="2.385140701992253"><ele>35.0</ele><time>2026-03-30T14:44:03.999Z</time></trkpt><trkpt lat="48.93388446245732" lon="2.385481033788859"><ele>35.0</ele><time>2026-03-30T14:44:04.999Z</time></trkpt><trkpt lat="48.933895312955364" lon="2.3858264578417923"><ele>35.0</ele><time>2026-03-30T14:44:05.999Z</time></trkpt><trkpt lat="48.93390526353841" lon="2.386173206854476"><ele>35.0</ele><time>2026-03-30T14:44:06.999Z</time></trkpt><trkpt lat="48.9339148229501" lon="2.386523558027272"><ele>34.5</ele><time>2026-03-30T14:44:07.999Z</time></trkpt><trkpt lat="48.93392740842474" lon="2.3868708619853787"><ele>34.0</ele><time>2026-03-30T14:44:08.999Z</time></trkpt><trkpt lat="48.93393922451211" lon="2.3872245478551264"><ele>33.5</ele><time>2026-03-30T14:44:09.999Z</time></trkpt><trkpt lat="48.93394707252059" lon="2.387584558142312"><ele>33.0</ele><time>2026-03-30T14:44:10.999Z</time></trkpt><trkpt lat="48.9339581685442" lon="2.387943015840858"><ele>33.0</ele><time>2026-03-30T14:44:11.999Z</time></trkpt><trkpt lat="48.93396666369916" lon="2.3883099737232394"><ele>33.0</ele><time>2026-03-30T14:44:12.999Z</time></trkpt><trkpt lat="48.933980093467476" lon="2.3886702846546024"><ele>33.0</ele><time>2026-03-30T14:44:13.999Z</time></trkpt><trkpt lat="48.93398920809041" lon="2.3890237416914646"><ele>33.0</ele><time>2026-03-30T14:44:14.999Z</time></trkpt><trkpt lat="48.93399954850135" lon="2.3893751548508115"><ele>33.0</ele><time>2026-03-30T14:44:15.999Z</time></trkpt><trkpt lat="48.9340066360404" lon="2.389726462918212"><ele>33.0</ele><time>2026-03-30T14:44:16.999Z</time></trkpt><trkpt lat="48.934017638588074" lon="2.3900734074565086"><ele>33.0</ele><time>2026-03-30T14:44:17.999Z</time></trkpt><trkpt lat="48.93402622364866" lon="2.39041576005088"><ele>33.0</ele><time>2026-03-30T14:44:18.999Z</time></trkpt><trkpt lat="48.93403366314428" lon="2.3907575527536675"><ele>32.5</ele><time>2026-03-30T14:44:19.999Z</time></trkpt><trkpt lat="48.93404121174203" lon="2.3911030181122728"><ele>32.0</ele><time>2026-03-30T14:44:20.999Z</time></trkpt><trkpt lat="48.93405325035279" lon="2.3914444400672665"><ele>32.0</ele><time>2026-03-30T14:44:21.999Z</time></trkpt><trkpt lat="48.93406419911361" lon="2.3917840492600124"><ele>32.0</ele><time>2026-03-30T14:44:22.999Z</time></trkpt><trkpt lat="48.9340816713865" lon="2.3921252027815303"><ele>32.0</ele><time>2026-03-30T14:44:23.999Z</time></trkpt><trkpt lat="48.93410477228242" lon="2.39247613659076"><ele>32.0</ele><time>2026-03-30T14:44:24.999Z</time></trkpt><trkpt lat="48.93412634386034" lon="2.392826334388009"><ele>32.0</ele><time>2026-03-30T14:44:25.998Z</time></trkpt><trkpt lat="48.93414462256802" lon="2.393181240961483"><ele>32.0</ele><time>2026-03-30T14:44:26.998Z</time></trkpt><trkpt lat="48.93415678877135" lon="2.3935394867369375"><ele>32.0</ele><time>2026-03-30T14:44:27.998Z</time></trkpt><trkpt lat="48.934169436025485" lon="2.393895590816392"><ele>32.5</ele><time>2026-03-30T14:44:28.998Z</time></trkpt><trkpt lat="48.93418684634963" lon="2.3942419574642098"><ele>33.0</ele><time>2026-03-30T14:44:29.998Z</time></trkpt><trkpt lat="48.93421004446438" lon="2.39458197404597"><ele>34.5</ele><time>2026-03-30T14:44:30.998Z</time></trkpt><trkpt lat="48.93423817001486" lon="2.394923169306879"><ele>36.0</ele><time>2026-03-30T14:44:32Z</time></trkpt><trkpt lat="48.93427083359506" lon="2.3952690988839156"><ele>36.0</ele><time>2026-03-30T14:44:33Z</time></trkpt><trkpt lat="48.93430455213943" lon="2.3956215943555907"><ele>36.0</ele><time>2026-03-30T14:44:34Z</time></trkpt><trkpt lat="48.934337572198324" lon="2.3959677783112765"><ele>36.0</ele><time>2026-03-30T14:44:35Z</time></trkpt><trkpt lat="48.93436783594788" lon="2.396313383935545"><ele>36.0</ele><time>2026-03-30T14:44:36Z</time></trkpt><trkpt lat="48.93440188719972" lon="2.3966566040825255"><ele>35.5</ele><time>2026-03-30T14:44:37Z</time></trkpt><trkpt lat="48.9344360946653" lon="2.3969967757142334"><ele>35.0</ele><time>2026-03-30T14:44:38Z</time></trkpt><trkpt lat="48.9344739794834" lon="2.3973380103481"><ele>35.0</ele><time>2026-03-30T14:44:39Z</time></trkpt><trkpt lat="48.93451857963" lon="2.3976805499508407"><ele>35.0</ele><time>2026-03-30T14:44:40Z</time></trkpt><trkpt lat="48.934566460027604" lon="2.3980338772735137"><ele>36.5</ele><time>2026-03-30T14:44:41Z</time></trkpt><trkpt lat="48.93461370888567" lon="2.398379150742364"><ele>38.0</ele><time>2026-03-30T14:44:42Z</time></trkpt><trkpt lat="48.93466282845775" lon="2.3987074558260004"><ele>37.666666666666664</ele><time>2026-03-30T14:44:43Z</time></trkpt><trkpt lat="48.934711905011106" lon="2.3990354666253135"><ele>37.333333333333336</ele><time>2026-03-30T14:44:44Z</time></trkpt><trkpt lat="48.93476057597666" lon="2.3993742993833074"><ele>37.0</ele><time>2026-03-30T14:44:45Z</time></trkpt><trkpt lat="48.93480577231426" lon="2.3997169080174277"><ele>37.0</ele><time>2026-03-30T14:44:46Z</time></trkpt><trkpt lat="48.93485760491498" lon="2.4000477460834384"><ele>37.0</ele><time>2026-03-30T14:44:47Z</time></trkpt><trkpt lat="48.9349168057743" lon="2.400375450325174"><ele>37.0</ele><time>2026-03-30T14:44:48Z</time></trkpt><trkpt lat="48.9349811606299" lon="2.4006976413045984"><ele>36.0</ele><time>2026-03-30T14:44:49Z</time></trkpt><trkpt lat="48.93504659208239" lon="2.401017208784696"><ele>35.0</ele><time>2026-03-30T14:44:50Z</time></trkpt><trkpt lat="48.935110287785776" lon="2.4013322460125273"><ele>34.0</ele><time>2026-03-30T14:44:51Z</time></trkpt><trkpt lat="48.93517533186211" lon="2.401649846732908"><ele>35.0</ele><time>2026-03-30T14:44:52Z</time></trkpt><trkpt lat="48.935243164188186" lon="2.4019685986977874"><ele>36.0</ele><time>2026-03-30T14:44:53Z</time></trkpt><trkpt lat="48.93531841836038" lon="2.402289119327706"><ele>37.0</ele><time>2026-03-30T14:44:54Z</time></trkpt><trkpt lat="48.935391089444046" lon="2.402602608535133"><ele>37.0</ele><time>2026-03-30T14:44:55Z</time></trkpt><trkpt lat="48.93546321940394" lon="2.4029055972347972"><ele>37.0</ele><time>2026-03-30T14:44:56Z</time></trkpt><trkpt lat="48.93553449247415" lon="2.4031948645400325"><ele>37.0</ele><time>2026-03-30T14:44:57Z</time></trkpt><trkpt lat="48.93560836850827" lon="2.4034874406366695"><ele>37.0</ele><time>2026-03-30T14:44:58Z</time></trkpt><trkpt lat="48.93568834418021" lon="2.403806042794763"><ele>37.0</ele><time>2026-03-30T14:44:59Z</time></trkpt><trkpt lat="48.935758171016914" lon="2.4041349158323695"><ele>37.0</ele><time>2026-03-30T14:45:00Z</time></trkpt><trkpt lat="48.93582682071861" lon="2.4044564073474706"><ele>37.0</ele><time>2026-03-30T14:45:01Z</time></trkpt><trkpt lat="48.93590578890745" lon="2.4048002661831793"><ele>38.0</ele><time>2026-03-30T14:45:02Z</time></trkpt><trkpt lat="48.93598977519479" lon="2.405168925423272"><ele>39.0</ele><time>2026-03-30T14:45:03Z</time></trkpt><trkpt lat="48.93607608945038" lon="2.405542930419258"><ele>39.0</ele><time>2026-03-30T14:45:04Z</time></trkpt><trkpt lat="48.93616458072829" lon="2.405916513693686"><ele>39.0</ele><time>2026-03-30T14:45:05Z</time></trkpt><trkpt lat="48.936257177876726" lon="2.406287705521219"><ele>40.0</ele><time>2026-03-30T14:45:06Z</time></trkpt><trkpt lat="48.93634590845675" lon="2.4066578705813044"><ele>41.0</ele><time>2026-03-30T14:45:07Z</time></trkpt><trkpt lat="48.93643300320949" lon="2.4070257948036287"><ele>41.0</ele><time>2026-03-30T14:45:08Z</time></trkpt><trkpt lat="48.93651836919486" lon="2.4073874678184315"><ele>41.0</ele><time>2026-03-30T14:45:09Z</time></trkpt><trkpt lat="48.93660439616164" lon="2.407742749866869"><ele>40.5</ele><time>2026-03-30T14:45:10Z</time></trkpt><trkpt lat="48.93669878321047" lon="2.4080862634466516"><ele>40.0</ele><time>2026-03-30T14:45:11Z</time></trkpt><trkpt lat="48.9367907560594" lon="2.408433389730072"><ele>40.0</ele><time>2026-03-30T14:45:12Z</time></trkpt><trkpt lat="48.936873546365156" lon="2.408780613520796"><ele>40.0</ele><time>2026-03-30T14:45:13Z</time></trkpt><trkpt lat="48.93695434545432" lon="2.4091335242024665"><ele>40.0</ele><time>2026-03-30T14:45:14Z</time></trkpt><trkpt lat="48.9370315785267" lon="2.4094843854279087"><ele>40.0</ele><time>2026-03-30T14:45:15Z</time></trkpt><trkpt lat="48.93710997143868" lon="2.4098388608286605"><ele>40.5</ele><time>2026-03-30T14:45:16Z</time></trkpt><trkpt lat="48.9371938304669" lon="2.410190159532095"><ele>41.0</ele><time>2026-03-30T14:45:17Z</time></trkpt><trkpt lat="48.93727174671264" lon="2.4105390105116307"><ele>42.0</ele><time>2026-03-30T14:45:18Z</time></trkpt><trkpt lat="48.93735615498685" lon="2.4108895993824735"><ele>43.0</ele><time>2026-03-30T14:45:19Z</time></trkpt><trkpt lat="48.93743786303972" lon="2.411234048874921"><ele>43.0</ele><time>2026-03-30T14:45:20Z</time></trkpt><trkpt lat="48.93751716063701" lon="2.411572368595039"><ele>43.0</ele><time>2026-03-30T14:45:21Z</time></trkpt><trkpt lat="48.93760138487105" lon="2.411909074866365"><ele>43.0</ele><time>2026-03-30T14:45:22Z</time></trkpt><trkpt lat="48.93768284660889" lon="2.4122463118887927"><ele>43.0</ele><time>2026-03-30T14:45:23Z</time></trkpt><trkpt lat="48.93776032314739" lon="2.4125833994947663"><ele>43.0</ele><time>2026-03-30T14:45:24Z</time></trkpt><trkpt lat="48.937839282873696" lon="2.4129251835034093"><ele>43.0</ele><time>2026-03-30T14:45:25Z</time></trkpt><trkpt lat="48.937922691893405" lon="2.413285243437569"><ele>43.0</ele><time>2026-03-30T14:45:25.999Z</time></trkpt><trkpt lat="48.938013045226825" lon="2.413657840129558"><ele>43.0</ele><time>2026-03-30T14:45:26.999Z</time></trkpt><trkpt lat="48.938102294304066" lon="2.4140321034265972"><ele>43.0</ele><time>2026-03-30T14:45:27.999Z</time></trkpt><trkpt lat="48.93818950197828" lon="2.414412914679031"><ele>43.0</ele><time>2026-03-30T14:45:28.999Z</time></trkpt><trkpt lat="48.938273974199596" lon="2.4147969570303918"><ele>42.5</ele><time>2026-03-30T14:45:29.999Z</time></trkpt><trkpt lat="48.93836462100878" lon="2.4151802574545487"><ele>42.0</ele><time>2026-03-30T14:45:30.999Z</time></trkpt><trkpt lat="48.9384533178648" lon="2.4155470791946816"><ele>38.5</ele><time>2026-03-30T14:45:31.999Z</time></trkpt><trkpt lat="48.938533183817505" lon="2.4158947738808214"><ele>35.0</ele><time>2026-03-30T14:45:32.999Z</time></trkpt><trkpt lat="48.93860408391588" lon="2.416211779201813"><ele>35.666666666666664</ele><time>2026-03-30T14:45:33.999Z</time></trkpt><trkpt lat="48.93867599075039" lon="2.4165136856377893"><ele>36.333333333333336</ele><time>2026-03-30T14:45:34.999Z</time></trkpt><trkpt lat="48.93874869137103" lon="2.4168088456704204"><ele>37.0</ele><time>2026-03-30T14:45:35.999Z</time></trkpt><trkpt lat="48.938822696135524" lon="2.417108166737518"><ele>37.0</ele><time>2026-03-30T14:45:36.999Z</time></trkpt><trkpt lat="48.93889495025681" lon="2.4174166633733525"><ele>37.0</ele><time>2026-03-30T14:45:37.999Z</time></trkpt><trkpt lat="48.93896846724803" lon="2.417731551673227"><ele>37.0</ele><time>2026-03-30T14:45:38.999Z</time></trkpt><trkpt lat="48.939038541972515" lon="2.4180451839931365"><ele>37.0</ele><time>2026-03-30T14:45:39.999Z</time></trkpt><trkpt lat="48.939111696099616" lon="2.418348611626915"><ele>37.0</ele><time>2026-03-30T14:45:40.999Z</time></trkpt><trkpt lat="48.93917926809747" lon="2.4186352189680638"><ele>37.0</ele><time>2026-03-30T14:45:41.999Z</time></trkpt><trkpt lat="48.93924672094049" lon="2.4189207486297355"><ele>37.66666666666667</ele><time>2026-03-30T14:45:42.999Z</time></trkpt><trkpt lat="48.93929742676926" lon="2.419185545866284"><ele>38.333333333333336</ele><time>2026-03-30T14:45:43.999Z</time></trkpt><trkpt lat="48.939357028253966" lon="2.419404121189018"><ele>39.0</ele><time>2026-03-30T14:45:44.999Z</time></trkpt><trkpt lat="48.939404988326366" lon="2.4196252264041513"><ele>39.25</ele><time>2026-03-30T14:45:45.999Z</time></trkpt><trkpt lat="48.93945919781741" lon="2.419834908235199"><ele>39.5</ele><time>2026-03-30T14:45:46.999Z</time></trkpt><trkpt lat="48.93950368730602" lon="2.420003037710232"><ele>39.75</ele><time>2026-03-30T14:45:47.999Z</time></trkpt><trkpt lat="48.939538375733314" lon="2.420164654068771"><ele>40.0</ele><time>2026-03-30T14:45:48.999Z</time></trkpt><trkpt lat="48.93957760701411" lon="2.4203186699708317"><ele>40.0</ele><time>2026-03-30T14:45:49.999Z</time></trkpt><trkpt lat="48.939615182063136" lon="2.420466835031302"><ele>40.0</ele><time>2026-03-30T14:45:50.999Z</time></trkpt><trkpt lat="48.93965192157704" lon="2.4206180054999087"><ele>40.0</ele><time>2026-03-30T14:45:51.999Z</time></trkpt><trkpt lat="48.93968841008966" lon="2.4207821713149404"><ele>40.0</ele><time>2026-03-30T14:45:52.999Z</time></trkpt><trkpt lat="48.93971750953947" lon="2.4209692208844147"><ele>40.0</ele><time>2026-03-30T14:45:53.999Z</time></trkpt><trkpt lat="48.939764222244136" lon="2.4211784145395505"><ele>40.0</ele><time>2026-03-30T14:45:54.999Z</time></trkpt><trkpt lat="48.93982341397159" lon="2.4214198055328895"><ele>40.0</ele><time>2026-03-30T14:45:55.999Z</time></trkpt><trkpt lat="48.93988686714082" lon="2.4216733954765104"><ele>40.0</ele><time>2026-03-30T14:45:56.999Z</time></trkpt><trkpt lat="48.93994601843142" lon="2.4219389473259203"><ele>40.0</ele><time>2026-03-30T14:45:57.999Z</time></trkpt><trkpt lat="48.9400009896118" lon="2.422182801464181"><ele>40.0</ele><time>2026-03-30T14:45:58.999Z</time></trkpt><trkpt lat="48.940055981812755" lon="2.422429019902929"><ele>40.333333333333336</ele><time>2026-03-30T14:45:59.999Z</time></trkpt><trkpt lat="48.94011401705828" lon="2.4226844466211612"><ele>40.666666666666664</ele><time>2026-03-30T14:46:00.999Z</time></trkpt><trkpt lat="48.94018444035794" lon="2.4229428089183624"><ele>41.0</ele><time>2026-03-30T14:46:01.999Z</time></trkpt><trkpt lat="48.94024933140709" lon="2.4232083056740215"><ele>41.33333333333333</ele><time>2026-03-30T14:46:02.999Z</time></trkpt><trkpt lat="48.940308725017445" lon="2.4235048561555703"><ele>41.666666666666664</ele><time>2026-03-30T14:46:03.999Z</time></trkpt><trkpt lat="48.94037328637068" lon="2.4237750671060594"><ele>42.0</ele><time>2026-03-30T14:46:04.999Z</time></trkpt><trkpt lat="48.94043708162017" lon="2.4240469085187137"><ele>42.0</ele><time>2026-03-30T14:46:05.999Z</time></trkpt><trkpt lat="48.94049771099173" lon="2.424321915259572"><ele>42.0</ele><time>2026-03-30T14:46:06.999Z</time></trkpt><trkpt lat="48.940569448779065" lon="2.4246017399855107"><ele>42.0</ele><time>2026-03-30T14:46:07.999Z</time></trkpt><trkpt lat="48.94062892745623" lon="2.424890806786133"><ele>42.0</ele><time>2026-03-30T14:46:08.999Z</time></trkpt><trkpt lat="48.94069013292555" lon="2.42518052804213"><ele>42.0</ele><time>2026-03-30T14:46:09.999Z</time></trkpt><trkpt lat="48.94075187707195" lon="2.425463360273675"><ele>42.0</ele><time>2026-03-30T14:46:10.999Z</time></trkpt><trkpt lat="48.94082526276938" lon="2.4257603995917276"><ele>41.666666666666664</ele><time>2026-03-30T14:46:11.999Z</time></trkpt><trkpt lat="48.94089240215741" lon="2.4260720229468027"><ele>41.33333333333333</ele><time>2026-03-30T14:46:12.999Z</time></trkpt><trkpt lat="48.94095917802758" lon="2.4263917566497137"><ele>41.0</ele><time>2026-03-30T14:46:13.999Z</time></trkpt><trkpt lat="48.94102441856082" lon="2.42671028872239"><ele>41.0</ele><time>2026-03-30T14:46:14.999Z</time></trkpt><trkpt lat="48.941089085129995" lon="2.426992131184319"><ele>41.0</ele><time>2026-03-30T14:46:15.999Z</time></trkpt><trkpt lat="48.941148203020106" lon="2.4272461328008945"><ele>41.0</ele><time>2026-03-30T14:46:16.999Z</time></trkpt><trkpt lat="48.941207267553146" lon="2.427487821234756"><ele>42.0</ele><time>2026-03-30T14:46:17.999Z</time></trkpt><trkpt lat="48.94127134279383" lon="2.427752585275341"><ele>43.0</ele><time>2026-03-30T14:46:18.999Z</time></trkpt><trkpt lat="48.94134606609087" lon="2.4280701518951426"><ele>44.0</ele><time>2026-03-30T14:46:19.999Z</time></trkpt><trkpt lat="48.94142235510412" lon="2.428398589949177"><ele>44.33333333333333</ele><time>2026-03-30T14:46:20.999Z</time></trkpt><trkpt lat="48.941497801085966" lon="2.428721024404736"><ele>44.666666666666664</ele><time>2026-03-30T14:46:21.999Z</time></trkpt><trkpt lat="48.94156766797619" lon="2.4290320397479697"><ele>45.0</ele><time>2026-03-30T14:46:22.999Z</time></trkpt><trkpt lat="48.9416405416176" lon="2.4293462979183174"><ele>45.0</ele><time>2026-03-30T14:46:23.999Z</time></trkpt><trkpt lat="48.94171757265838" lon="2.4296679135849013"><ele>45.0</ele><time>2026-03-30T14:46:24.999Z</time></trkpt><trkpt lat="48.94178587285685" lon="2.4300035171154444"><ele>45.0</ele><time>2026-03-30T14:46:25.999Z</time></trkpt><trkpt lat="48.94186484075356" lon="2.430335728713479"><ele>45.0</ele><time>2026-03-30T14:46:26.999Z</time></trkpt><trkpt lat="48.94194731942824" lon="2.4306601813912208"><ele>44.5</ele><time>2026-03-30T14:46:27.998Z</time></trkpt><trkpt lat="48.942027800703215" lon="2.430975948738933"><ele>44.0</ele><time>2026-03-30T14:46:28.998Z</time></trkpt><trkpt lat="48.94212477803631" lon="2.4313314529985277"><ele>43.5</ele><time>2026-03-30T14:46:29.998Z</time></trkpt><trkpt lat="48.94222646937152" lon="2.431689835770273"><ele>43.0</ele><time>2026-03-30T14:46:30.998Z</time></trkpt><trkpt lat="48.9423158950736" lon="2.43201956048026"><ele>44.0</ele><time>2026-03-30T14:46:31.998Z</time></trkpt><trkpt lat="48.94240759495489" lon="2.4323407466401394"><ele>45.0</ele><time>2026-03-30T14:46:32.998Z</time></trkpt><trkpt lat="48.94249950474257" lon="2.432663842214065"><ele>46.0</ele><time>2026-03-30T14:46:33.998Z</time></trkpt><trkpt lat="48.942595934519964" lon="2.432993608350471"><ele>47.0</ele><time>2026-03-30T14:46:34.998Z</time></trkpt><trkpt lat="48.942692710711505" lon="2.433311064468944"><ele>47.0</ele><time>2026-03-30T14:46:35.998Z</time></trkpt><trkpt lat="48.94278714209366" lon="2.433615861635996"><ele>47.0</ele><time>2026-03-30T14:46:36.998Z</time></trkpt><trkpt lat="48.94287813760803" lon="2.4339137674380478"><ele>47.0</ele><time>2026-03-30T14:46:38Z</time></trkpt><trkpt lat="48.94297567931824" lon="2.434196624357501"><ele>47.0</ele><time>2026-03-30T14:46:39Z</time></trkpt><trkpt lat="48.94308003115245" lon="2.434488769090422"><ele>47.0</ele><time>2026-03-30T14:46:40Z</time></trkpt><trkpt lat="48.943185298771546" lon="2.434787403876211"><ele>47.0</ele><time>2026-03-30T14:46:41Z</time></trkpt><trkpt lat="48.94329450579214" lon="2.435086438548901"><ele>46.5</ele><time>2026-03-30T14:46:42Z</time></trkpt><trkpt lat="48.943407430950934" lon="2.435386694494871"><ele>46.0</ele><time>2026-03-30T14:46:43Z</time></trkpt><trkpt lat="48.94351708257067" lon="2.4356947410514196"><ele>46.0</ele><time>2026-03-30T14:46:44Z</time></trkpt><trkpt lat="48.943633680323025" lon="2.4359982036642385"><ele>46.0</ele><time>2026-03-30T14:46:45Z</time></trkpt><trkpt lat="48.943752352441955" lon="2.4362936382331934"><ele>45.0</ele><time>2026-03-30T14:46:46Z</time></trkpt><trkpt lat="48.94387447946317" lon="2.4365889325119263"><ele>44.0</ele><time>2026-03-30T14:46:47Z</time></trkpt><trkpt lat="48.94399793257671" lon="2.4368976042907597"><ele>44.5</ele><time>2026-03-30T14:46:48Z</time></trkpt><trkpt lat="48.94412301461802" lon="2.4371958321005236"><ele>45.0</ele><time>2026-03-30T14:46:49Z</time></trkpt><trkpt lat="48.9442504526209" lon="2.437492263827986"><ele>45.0</ele><time>2026-03-30T14:46:50Z</time></trkpt><trkpt lat="48.944387570032184" lon="2.437772563295122"><ele>45.0</ele><time>2026-03-30T14:46:51Z</time></trkpt><trkpt lat="48.94451237761657" lon="2.438061662095869"><ele>45.0</ele><time>2026-03-30T14:46:52Z</time></trkpt><trkpt lat="48.94463329197732" lon="2.4383344436814176"><ele>45.0</ele><time>2026-03-30T14:46:53Z</time></trkpt><trkpt lat="48.94476571656021" lon="2.4386091497976525"><ele>45.0</ele><time>2026-03-30T14:46:54Z</time></trkpt><trkpt lat="48.94489928388529" lon="2.4388853582242254"><ele>45.0</ele><time>2026-03-30T14:46:55Z</time></trkpt><trkpt lat="48.945031240512165" lon="2.439156853842033"><ele>45.0</ele><time>2026-03-30T14:46:56Z</time></trkpt><trkpt lat="48.945162792840115" lon="2.4394259743643496"><ele>45.0</ele><time>2026-03-30T14:46:57Z</time></trkpt><trkpt lat="48.945295772861265" lon="2.4396965400221386"><ele>44.5</ele><time>2026-03-30T14:46:58Z</time></trkpt><trkpt lat="48.945436772616986" lon="2.4399714110169444"><ele>44.0</ele><time>2026-03-30T14:46:59Z</time></trkpt><trkpt lat="48.94558137278735" lon="2.4402453311168473"><ele>45.5</ele><time>2026-03-30T14:47:00Z</time></trkpt><trkpt lat="48.94572695179846" lon="2.440521939387375"><ele>47.0</ele><time>2026-03-30T14:47:01Z</time></trkpt><trkpt lat="48.94587079266671" lon="2.44079878111054"><ele>46.5</ele><time>2026-03-30T14:47:02Z</time></trkpt><trkpt lat="48.946017363136" lon="2.4410773626777864"><ele>46.0</ele><time>2026-03-30T14:47:03Z</time></trkpt><trkpt lat="48.946159927677314" lon="2.441352239861914"><ele>45.5</ele><time>2026-03-30T14:47:04Z</time></trkpt><trkpt lat="48.946303430442285" lon="2.441622829347784"><ele>45.0</ele><time>2026-03-30T14:47:05Z</time></trkpt><trkpt lat="48.94644719711184" lon="2.4418956473466933"><ele>45.0</ele><time>2026-03-30T14:47:06Z</time></trkpt><trkpt lat="48.94659459877345" lon="2.4421657849019436"><ele>45.0</ele><time>2026-03-30T14:47:07Z</time></trkpt><trkpt lat="48.9467444551654" lon="2.4424381008780656"><ele>45.0</ele><time>2026-03-30T14:47:08Z</time></trkpt><trkpt lat="48.946896261719104" lon="2.44271058857704"><ele>45.0</ele><time>2026-03-30T14:47:09Z</time></trkpt><trkpt lat="48.947043088310394" lon="2.4429766479376513"><ele>45.0</ele><time>2026-03-30T14:47:10Z</time></trkpt><trkpt lat="48.9470488204488" lon="2.4431349087813174"><ele>45.0</ele><time>2026-03-30T14:47:12Z</time></trkpt><trkpt lat="48.947196846017576" lon="2.443391779326274"><ele>45.0</ele><time>2026-03-30T14:47:13Z</time></trkpt><trkpt lat="48.94734331845995" lon="2.4436605616192404"><ele>45.0</ele><time>2026-03-30T14:47:14Z</time></trkpt><trkpt lat="48.947512294097166" lon="2.4439670925302113"><ele>45.0</ele><time>2026-03-30T14:47:15Z</time></trkpt><trkpt lat="48.947679836610995" lon="2.4442813034353255"><ele>45.0</ele><time>2026-03-30T14:47:16Z</time></trkpt><trkpt lat="48.9478282193368" lon="2.444554871712145"><ele>45.0</ele><time>2026-03-30T14:47:17Z</time></trkpt><trkpt lat="48.94796243215594" lon="2.444829795504273"><ele>45.0</ele><time>2026-03-30T14:47:18Z</time></trkpt><trkpt lat="48.94812467260996" lon="2.445063759736317"><ele>45.0</ele><time>2026-03-30T14:47:19Z</time></trkpt><trkpt lat="48.94824167563454" lon="2.445297832511467"><ele>45.0</ele><time>2026-03-30T14:47:20Z</time></trkpt><trkpt lat="48.94834862443021" lon="2.445486549027369"><ele>44.666666666666664</ele><time>2026-03-30T14:47:21Z</time></trkpt><trkpt lat="48.94847280086184" lon="2.445711922301955"><ele>44.33333333333333</ele><time>2026-03-30T14:47:22.012Z</time></trkpt><trkpt lat="48.94859363883267" lon="2.4459343571090524"><ele>44.0</ele><time>2026-03-30T14:47:23.011Z</time></trkpt><trkpt lat="48.94871363838748" lon="2.4461583084379654"><ele>44.0</ele><time>2026-03-30T14:47:24.017Z</time></trkpt><trkpt lat="48.94889311587016" lon="2.4462534833420357"><ele>44.0</ele><time>2026-03-30T14:47:25.016Z</time></trkpt><trkpt lat="48.94902738470411" lon="2.446501703839529"><ele>44.0</ele><time>2026-03-30T14:47:26Z</time></trkpt><trkpt lat="48.94921315236627" lon="2.4468474014852393"><ele>45.5</ele><time>2026-03-30T14:47:27Z</time></trkpt><trkpt lat="48.949409370263204" lon="2.447212261149871"><ele>47.0</ele><time>2026-03-30T14:47:27.999Z</time></trkpt><trkpt lat="48.94953886899574" lon="2.447452174217905"><ele>47.0</ele><time>2026-03-30T14:47:28.999Z</time></trkpt><trkpt lat="48.94970536451008" lon="2.4477606286207565"><ele>47.0</ele><time>2026-03-30T14:47:29.999Z</time></trkpt><trkpt lat="48.949868497471094" lon="2.448063664260906"><ele>47.0</ele><time>2026-03-30T14:47:30.999Z</time></trkpt><trkpt lat="48.95001380598392" lon="2.4483342459540305"><ele>47.0</ele><time>2026-03-30T14:47:31.999Z</time></trkpt><trkpt lat="48.95014237259293" lon="2.4485736539596146"><ele>47.0</ele><time>2026-03-30T14:47:32.999Z</time></trkpt><trkpt lat="48.950282304292145" lon="2.448834225333926"><ele>45.666666666666664</ele><time>2026-03-30T14:47:33.999Z</time></trkpt><trkpt lat="48.950421952663056" lon="2.449094269169265"><ele>44.333333333333336</ele><time>2026-03-30T14:47:34.999Z</time></trkpt><trkpt lat="48.95056430546416" lon="2.449356690761589"><ele>43.0</ele><time>2026-03-30T14:47:35.999Z</time></trkpt><trkpt lat="48.950697737824214" lon="2.449604799570022"><ele>43.0</ele><time>2026-03-30T14:47:36.999Z</time></trkpt><trkpt lat="48.95085181018119" lon="2.4498909608714707"><ele>43.0</ele><time>2026-03-30T14:47:37.999Z</time></trkpt><trkpt lat="48.95098321654256" lon="2.4501377062022747"><ele>43.333333333333336</ele><time>2026-03-30T14:47:38.999Z</time></trkpt><trkpt lat="48.951109460350025" lon="2.450374721387652"><ele>43.666666666666664</ele><time>2026-03-30T14:47:39.999Z</time></trkpt><trkpt lat="48.951235437384575" lon="2.450610582409258"><ele>44.0</ele><time>2026-03-30T14:47:40.999Z</time></trkpt><trkpt lat="48.9513658168438" lon="2.450854498098973"><ele>44.0</ele><time>2026-03-30T14:47:41.999Z</time></trkpt><trkpt lat="48.95149184450658" lon="2.4510901766731368"><ele>44.0</ele><time>2026-03-30T14:47:42.999Z</time></trkpt><trkpt lat="48.951611846325406" lon="2.451314525024869"><ele>44.0</ele><time>2026-03-30T14:47:43.999Z</time></trkpt><trkpt lat="48.95172597761441" lon="2.4515278982648754"><ele>44.33333333333333</ele><time>2026-03-30T14:47:44.999Z</time></trkpt><trkpt lat="48.95183509616859" lon="2.4517318995264743"><ele>44.666666666666664</ele><time>2026-03-30T14:47:45.999Z</time></trkpt><trkpt lat="48.95195800546012" lon="2.4519616851569546"><ele>45.0</ele><time>2026-03-30T14:47:46.999Z</time></trkpt><trkpt lat="48.95210211414412" lon="2.452194994718707"><ele>45.333333333333336</ele><time>2026-03-30T14:47:47.999Z</time></trkpt><trkpt lat="48.952235080000094" lon="2.4524570437409605"><ele>45.66666666666667</ele><time>2026-03-30T14:47:48.999Z</time></trkpt><trkpt lat="48.952375060318296" lon="2.452723543447472"><ele>46.0</ele><time>2026-03-30T14:47:49.999Z</time></trkpt><trkpt lat="48.95252182517441" lon="2.4530004542239667"><ele>44.5</ele><time>2026-03-30T14:47:50.999Z</time></trkpt><trkpt lat="48.9526650705571" lon="2.4532759555350956"><ele>43.0</ele><time>2026-03-30T14:47:51.999Z</time></trkpt><trkpt lat="48.952810615543704" lon="2.4535519629776537"><ele>43.5</ele><time>2026-03-30T14:47:52.999Z</time></trkpt><trkpt lat="48.9529544173371" lon="2.453828190499524"><ele>44.0</ele><time>2026-03-30T14:47:53.999Z</time></trkpt><trkpt lat="48.953100994827096" lon="2.454103159808374"><ele>44.0</ele><time>2026-03-30T14:47:54.999Z</time></trkpt><trkpt lat="48.953262639400236" lon="2.4543799574012697"><ele>44.0</ele><time>2026-03-30T14:47:55.999Z</time></trkpt><trkpt lat="48.95341649851552" lon="2.4546800717011483"><ele>43.0</ele><time>2026-03-30T14:47:56.999Z</time></trkpt><trkpt lat="48.953582326035416" lon="2.4549549382247817"><ele>42.0</ele><time>2026-03-30T14:47:57.999Z</time></trkpt><trkpt lat="48.953727477067446" lon="2.455241826511519"><ele>42.5</ele><time>2026-03-30T14:47:58.999Z</time></trkpt><trkpt lat="48.95387639385863" lon="2.455528357808987"><ele>43.0</ele><time>2026-03-30T14:47:59.999Z</time></trkpt><trkpt lat="48.954023989755555" lon="2.4558161874162794"><ele>43.0</ele><time>2026-03-30T14:48:00.999Z</time></trkpt><trkpt lat="48.954172552339166" lon="2.4561024031548704"><ele>43.0</ele><time>2026-03-30T14:48:01.999Z</time></trkpt><trkpt lat="48.95432209621828" lon="2.456379944997701"><ele>41.5</ele><time>2026-03-30T14:48:02.999Z</time></trkpt><trkpt lat="48.95446958759028" lon="2.4566562838826083"><ele>40.0</ele><time>2026-03-30T14:48:03.999Z</time></trkpt><trkpt lat="48.954619348782" lon="2.456940478300818"><ele>40.0</ele><time>2026-03-30T14:48:04.999Z</time></trkpt><trkpt lat="48.95476914778488" lon="2.4572231079654965"><ele>40.0</ele><time>2026-03-30T14:48:05.999Z</time></trkpt><trkpt lat="48.954917764911066" lon="2.45750815374971"><ele>41.5</ele><time>2026-03-30T14:48:06.999Z</time></trkpt><trkpt lat="48.95506859116958" lon="2.457792275701858"><ele>43.0</ele><time>2026-03-30T14:48:07.999Z</time></trkpt><trkpt lat="48.955223428563876" lon="2.4580773653972976"><ele>43.0</ele><time>2026-03-30T14:48:08.999Z</time></trkpt><trkpt lat="48.95538070078637" lon="2.4583656011168413"><ele>43.0</ele><time>2026-03-30T14:48:09.999Z</time></trkpt><trkpt lat="48.95553871053626" lon="2.458658983419344"><ele>42.5</ele><time>2026-03-30T14:48:10.999Z</time></trkpt><trkpt lat="48.955698747748386" lon="2.4589558295784455"><ele>42.0</ele><time>2026-03-30T14:48:11.999Z</time></trkpt><trkpt lat="48.95586033909641" lon="2.459257330953516"><ele>42.0</ele><time>2026-03-30T14:48:12.999Z</time></trkpt><trkpt lat="48.956019855923486" lon="2.4595582043790847"><ele>42.0</ele><time>2026-03-30T14:48:13.999Z</time></trkpt><trkpt lat="48.9561781428301" lon="2.4598544577221726"><ele>42.0</ele><time>2026-03-30T14:48:14.999Z</time></trkpt><trkpt lat="48.956337521571726" lon="2.4601515666357887"><ele>42.0</ele><time>2026-03-30T14:48:15.999Z</time></trkpt><trkpt lat="48.956496822384445" lon="2.4604491903943706"><ele>42.0</ele><time>2026-03-30T14:48:16.999Z</time></trkpt><trkpt lat="48.956652686577726" lon="2.460748413578838"><ele>42.0</ele><time>2026-03-30T14:48:17.999Z</time></trkpt><trkpt lat="48.95680579869249" lon="2.4610426789528477"><ele>43.5</ele><time>2026-03-30T14:48:18.999Z</time></trkpt><trkpt lat="48.956964353858794" lon="2.4613358025613783"><ele>45.0</ele><time>2026-03-30T14:48:19.999Z</time></trkpt><trkpt lat="48.9571210078862" lon="2.461628103511772"><ele>45.0</ele><time>2026-03-30T14:48:20.999Z</time></trkpt><trkpt lat="48.95728130141182" lon="2.4619266917226983"><ele>45.0</ele><time>2026-03-30T14:48:21.999Z</time></trkpt><trkpt lat="48.95743990295696" lon="2.462232845022374"><ele>45.5</ele><time>2026-03-30T14:48:22.999Z</time></trkpt><trkpt lat="48.95760681211709" lon="2.462543711494927"><ele>46.0</ele><time>2026-03-30T14:48:23.999Z</time></trkpt><trkpt lat="48.95777848507168" lon="2.462861116494728"><ele>46.5</ele><time>2026-03-30T14:48:24.999Z</time></trkpt><trkpt lat="48.957961956668406" lon="2.463193200788259"><ele>47.0</ele><time>2026-03-30T14:48:25.999Z</time></trkpt><trkpt lat="48.95815756510761" lon="2.4635510241185847"><ele>47.5</ele><time>2026-03-30T14:48:26.999Z</time></trkpt><trkpt lat="48.95834630902509" lon="2.4639068712339567"><ele>48.0</ele><time>2026-03-30T14:48:27.998Z</time></trkpt><trkpt lat="48.95853792069711" lon="2.464263357586461"><ele>47.5</ele><time>2026-03-30T14:48:28.998Z</time></trkpt><trkpt lat="48.95873216706776" lon="2.4646215237024234"><ele>47.0</ele><time>2026-03-30T14:48:29.998Z</time></trkpt><trkpt lat="48.95891908100661" lon="2.4649674699401904"><ele>47.0</ele><time>2026-03-30T14:48:30.998Z</time></trkpt><trkpt lat="48.95909252376845" lon="2.465292547055364"><ele>47.0</ele><time>2026-03-30T14:48:31.998Z</time></trkpt><trkpt lat="48.95926533244513" lon="2.4656131138995905"><ele>47.5</ele><time>2026-03-30T14:48:32.998Z</time></trkpt><trkpt lat="48.95943911392058" lon="2.465931078666382"><ele>48.0</ele><time>2026-03-30T14:48:33.998Z</time></trkpt><trkpt lat="48.959615774923044" lon="2.466250702030263"><ele>48.5</ele><time>2026-03-30T14:48:34.998Z</time></trkpt><trkpt lat="48.95979120146489" lon="2.466563705823653"><ele>49.0</ele><time>2026-03-30T14:48:35.998Z</time></trkpt><trkpt lat="48.95996949117008" lon="2.4668739061846803"><ele>51.5</ele><time>2026-03-30T14:48:36.998Z</time></trkpt><trkpt lat="48.96015209536911" lon="2.4671842388851752"><ele>54.0</ele><time>2026-03-30T14:48:37.998Z</time></trkpt><trkpt lat="48.96033318050633" lon="2.4674982547406734"><ele>54.0</ele><time>2026-03-30T14:48:38.998Z</time></trkpt><trkpt lat="48.96051252713972" lon="2.4678138515790407"><ele>54.0</ele><time>2026-03-30T14:48:39.998Z</time></trkpt><trkpt lat="48.96069291609419" lon="2.468124762507276"><ele>57.0</ele><time>2026-03-30T14:48:40.998Z</time></trkpt><trkpt lat="48.96087640863718" lon="2.4684381726575393"><ele>60.0</ele><time>2026-03-30T14:48:41.998Z</time></trkpt><trkpt lat="48.96105972103316" lon="2.4687475149056164"><ele>57.5</ele><time>2026-03-30T14:48:42.998Z</time></trkpt><trkpt lat="48.96123903390836" lon="2.469048531403299"><ele>55.0</ele><time>2026-03-30T14:48:44Z</time></trkpt><trkpt lat="48.96141553841426" lon="2.4693320254059827"><ele>54.5</ele><time>2026-03-30T14:48:45Z</time></trkpt><trkpt lat="48.961599165816075" lon="2.4696139921709515"><ele>54.0</ele><time>2026-03-30T14:48:46Z</time></trkpt><trkpt lat="48.96179263733286" lon="2.4698923949426628"><ele>55.0</ele><time>2026-03-30T14:48:47Z</time></trkpt><trkpt lat="48.96199298364103" lon="2.4701923776626638"><ele>56.0</ele><time>2026-03-30T14:48:48Z</time></trkpt><trkpt lat="48.96219229612815" lon="2.470505333924643"><ele>56.0</ele><time>2026-03-30T14:48:49Z</time></trkpt><trkpt lat="48.96239336831345" lon="2.4708167225349036"><ele>56.0</ele><time>2026-03-30T14:48:50Z</time></trkpt><trkpt lat="48.96258307211498" lon="2.471114591458557"><ele>57.5</ele><time>2026-03-30T14:48:51Z</time></trkpt><trkpt lat="48.96275471305157" lon="2.4713906841515088"><ele>59.0</ele><time>2026-03-30T14:48:52Z</time></trkpt><trkpt lat="48.962926467348126" lon="2.471657070735426"><ele>59.0</ele><time>2026-03-30T14:48:53Z</time></trkpt><trkpt lat="48.96311088979177" lon="2.4719236926894688"><ele>59.0</ele><time>2026-03-30T14:48:54Z</time></trkpt><trkpt lat="48.96329713296209" lon="2.4721899877640925"><ele>57.5</ele><time>2026-03-30T14:48:55Z</time></trkpt><trkpt lat="48.96346104322301" lon="2.4724632405914817"><ele>56.0</ele><time>2026-03-30T14:48:56Z</time></trkpt><trkpt lat="48.963637310674564" lon="2.4727619830788266"><ele>55.5</ele><time>2026-03-30T14:48:57Z</time></trkpt><trkpt lat="48.96381524974611" lon="2.473067085532545"><ele>55.0</ele><time>2026-03-30T14:48:58Z</time></trkpt><trkpt lat="48.96399388277376" lon="2.4733710204539037"><ele>55.0</ele><time>2026-03-30T14:48:59Z</time></trkpt><trkpt lat="48.964179097062626" lon="2.4736769639398735"><ele>55.0</ele><time>2026-03-30T14:49:00Z</time></trkpt><trkpt lat="48.964360267241275" lon="2.4739849225116033"><ele>56.5</ele><time>2026-03-30T14:49:01Z</time></trkpt><trkpt lat="48.96453291350979" lon="2.474302352322145"><ele>58.0</ele><time>2026-03-30T14:49:02Z</time></trkpt><trkpt lat="48.964693714424634" lon="2.4746127091387504"><ele>58.0</ele><time>2026-03-30T14:49:03Z</time></trkpt><trkpt lat="48.964864225934846" lon="2.4749567652826077"><ele>58.0</ele><time>2026-03-30T14:49:04Z</time></trkpt><trkpt lat="48.96501236568777" lon="2.4752598581383336"><ele>58.5</ele><time>2026-03-30T14:49:05Z</time></trkpt><trkpt lat="48.96515545534378" lon="2.475567172806792"><ele>59.0</ele><time>2026-03-30T14:49:06Z</time></trkpt><trkpt lat="48.96529278591101" lon="2.475878821543198"><ele>59.0</ele><time>2026-03-30T14:49:07Z</time></trkpt><trkpt lat="48.96543613330553" lon="2.4761920557909964"><ele>59.0</ele><time>2026-03-30T14:49:08Z</time></trkpt><trkpt lat="48.96558548213038" lon="2.476502905172465"><ele>59.5</ele><time>2026-03-30T14:49:09Z</time></trkpt><trkpt lat="48.96574039129707" lon="2.476820817327014"><ele>60.0</ele><time>2026-03-30T14:49:10Z</time></trkpt><trkpt lat="48.96592067638895" lon="2.477140946941115"><ele>60.5</ele><time>2026-03-30T14:49:11Z</time></trkpt><trkpt lat="48.966095773967254" lon="2.477441295598704"><ele>61.0</ele><time>2026-03-30T14:49:12Z</time></trkpt><trkpt lat="48.96628606373304" lon="2.477735320418202"><ele>60.5</ele><time>2026-03-30T14:49:13Z</time></trkpt><trkpt lat="48.966480686897185" lon="2.4780207300510386"><ele>60.0</ele><time>2026-03-30T14:49:14Z</time></trkpt><trkpt lat="48.966685264886294" lon="2.4782920097076224"><ele>60.0</ele><time>2026-03-30T14:49:15Z</time></trkpt><trkpt lat="48.96689051722763" lon="2.478552592707816"><ele>60.0</ele><time>2026-03-30T14:49:16Z</time></trkpt><trkpt lat="48.96709851972272" lon="2.4787932629225717"><ele>60.0</ele><time>2026-03-30T14:49:17Z</time></trkpt><trkpt lat="48.967299166190855" lon="2.479022366895604"><ele>60.0</ele><time>2026-03-30T14:49:18Z</time></trkpt><trkpt lat="48.967497548219086" lon="2.479248019348313"><ele>60.5</ele><time>2026-03-30T14:49:19Z</time></trkpt><trkpt lat="48.96768328604432" lon="2.4794677790084116"><ele>61.0</ele><time>2026-03-30T14:49:20Z</time></trkpt><trkpt lat="48.96786080586732" lon="2.4796770741630922"><ele>61.0</ele><time>2026-03-30T14:49:21Z</time></trkpt><trkpt lat="48.96803433894098" lon="2.4798795175699047"><ele>61.0</ele><time>2026-03-30T14:49:22Z</time></trkpt><trkpt lat="48.968196051220154" lon="2.480075061347192"><ele>61.0</ele><time>2026-03-30T14:49:23Z</time></trkpt><trkpt lat="48.96834664631613" lon="2.4802683938730157"><ele>61.666666666666664</ele><time>2026-03-30T14:49:24Z</time></trkpt><trkpt lat="48.96849138959916" lon="2.480458397086034"><ele>62.33333333333333</ele><time>2026-03-30T14:49:25Z</time></trkpt><trkpt lat="48.968625933166116" lon="2.4806414175678224"><ele>63.0</ele><time>2026-03-30T14:49:26Z</time></trkpt><trkpt lat="48.968749194058184" lon="2.480816741047164"><ele>63.0</ele><time>2026-03-30T14:49:27Z</time></trkpt><trkpt lat="48.9688509741069" lon="2.48096674853734"><ele>63.0</ele><time>2026-03-30T14:49:28Z</time></trkpt><trkpt lat="48.96893325044841" lon="2.4810921093723426"><ele>63.0</ele><time>2026-03-30T14:49:29Z</time></trkpt><trkpt lat="48.969010821584156" lon="2.481188520509438"><ele>63.0</ele><time>2026-03-30T14:49:30Z</time></trkpt><trkpt lat="48.96908061285568" lon="2.4812713930447208"><ele>63.0</ele><time>2026-03-30T14:49:30.999Z</time></trkpt><trkpt lat="48.96914610643926" lon="2.4813380672429073"><ele>63.2</ele><time>2026-03-30T14:49:31.999Z</time></trkpt><trkpt lat="48.96920726883509" lon="2.4814123327116855"><ele>63.4</ele><time>2026-03-30T14:49:32.999Z</time></trkpt><trkpt lat="48.96927451113546" lon="2.481510568720242"><ele>63.60000000000001</ele><time>2026-03-30T14:49:33.999Z</time></trkpt><trkpt lat="48.969341901973706" lon="2.481625073115037"><ele>63.800000000000004</ele><time>2026-03-30T14:49:34.999Z</time></trkpt><trkpt lat="48.96941891400581" lon="2.48174777947147"><ele>64.0</ele><time>2026-03-30T14:49:35.999Z</time></trkpt><trkpt lat="48.96951404029533" lon="2.4818798067042214"><ele>64.0</ele><time>2026-03-30T14:49:36.999Z</time></trkpt><trkpt lat="48.969617190184394" lon="2.482022616891987"><ele>64.0</ele><time>2026-03-30T14:49:37.999Z</time></trkpt><trkpt lat="48.969733001888336" lon="2.4821841510148928"><ele>64.0</ele><time>2026-03-30T14:49:38.999Z</time></trkpt><trkpt lat="48.96985966341345" lon="2.4823665065396625"><ele>64.0</ele><time>2026-03-30T14:49:39.999Z</time></trkpt><trkpt lat="48.9699870184741" lon="2.48255377399998"><ele>64.0</ele><time>2026-03-30T14:49:40.999Z</time></trkpt><trkpt lat="48.970119369037505" lon="2.482752760580308"><ele>64.0</ele><time>2026-03-30T14:49:41.999Z</time></trkpt><trkpt lat="48.970239883996" lon="2.482930081415161"><ele>64.0</ele><time>2026-03-30T14:49:42.999Z</time></trkpt><trkpt lat="48.970345978483984" lon="2.4830968834876437"><ele>64.0</ele><time>2026-03-30T14:49:43.999Z</time></trkpt><trkpt lat="48.97045940098101" lon="2.483272038629953"><ele>64.0</ele><time>2026-03-30T14:49:44.999Z</time></trkpt><trkpt lat="48.97057975533917" lon="2.4834607059247484"><ele>64.0</ele><time>2026-03-30T14:49:45.999Z</time></trkpt><trkpt lat="48.97070328460707" lon="2.4836414622338774"><ele>64.0</ele><time>2026-03-30T14:49:46.999Z</time></trkpt><trkpt lat="48.97082888850704" lon="2.4838390486741324"><ele>64.0</ele><time>2026-03-30T14:49:47.999Z</time></trkpt><trkpt lat="48.97095606663289" lon="2.484037049071159"><ele>64.66666666666666</ele><time>2026-03-30T14:49:48.999Z</time></trkpt><trkpt lat="48.97108839693694" lon="2.4842320027920763"><ele>65.33333333333333</ele><time>2026-03-30T14:49:49.999Z</time></trkpt><trkpt lat="48.97122628827177" lon="2.484429566302868"><ele>66.0</ele><time>2026-03-30T14:49:50.999Z</time></trkpt><trkpt lat="48.97136219230197" lon="2.48463008430897"><ele>66.0</ele><time>2026-03-30T14:49:51.999Z</time></trkpt><trkpt lat="48.971493711889124" lon="2.4848291813152747"><ele>66.0</ele><time>2026-03-30T14:49:52.999Z</time></trkpt><trkpt lat="48.971613532536736" lon="2.4850087472470714"><ele>66.0</ele><time>2026-03-30T14:49:53.999Z</time></trkpt><trkpt lat="48.971730189109365" lon="2.4851784002749335"><ele>66.66666666666667</ele><time>2026-03-30T14:49:54.999Z</time></trkpt><trkpt lat="48.97183907741348" lon="2.4853539659052646"><ele>67.33333333333334</ele><time>2026-03-30T14:49:55.999Z</time></trkpt><trkpt lat="48.971950153628036" lon="2.485537133528062"><ele>68.0</ele><time>2026-03-30T14:49:56.999Z</time></trkpt><trkpt lat="48.97206936906933" lon="2.4857314058813427"><ele>68.0</ele><time>2026-03-30T14:49:57.999Z</time></trkpt><trkpt lat="48.97219361043329" lon="2.485922527381701"><ele>68.0</ele><time>2026-03-30T14:49:58.999Z</time></trkpt><trkpt lat="48.972319143484256" lon="2.486118374694559"><ele>68.0</ele><time>2026-03-30T14:49:59.999Z</time></trkpt><trkpt lat="48.97243398347834" lon="2.486299114843527"><ele>69.0</ele><time>2026-03-30T14:50:00.999Z</time></trkpt><trkpt lat="48.97254597531497" lon="2.486472360474591"><ele>70.0</ele><time>2026-03-30T14:50:01.999Z</time></trkpt><trkpt lat="48.972654381455534" lon="2.486644782394174"><ele>71.0</ele><time>2026-03-30T14:50:02.999Z</time></trkpt><trkpt lat="48.9727649647863" lon="2.48681962122638"><ele>71.0</ele><time>2026-03-30T14:50:03.999Z</time></trkpt><trkpt lat="48.972882882640484" lon="2.486999828107378"><ele>71.0</ele><time>2026-03-30T14:50:04.999Z</time></trkpt><trkpt lat="48.97299555885701" lon="2.4871708410653546"><ele>71.0</ele><time>2026-03-30T14:50:05.999Z</time></trkpt><trkpt lat="48.973102040958636" lon="2.4873342907022358"><ele>70.75</ele><time>2026-03-30T14:50:06.999Z</time></trkpt><trkpt lat="48.973199997468335" lon="2.4874869739314605"><ele>70.5</ele><time>2026-03-30T14:50:07.999Z</time></trkpt><trkpt lat="48.97329678303872" lon="2.4876363646157476"><ele>70.25</ele><time>2026-03-30T14:50:08.999Z</time></trkpt><trkpt lat="48.97339987104222" lon="2.4877931347575974"><ele>70.0</ele><time>2026-03-30T14:50:09.999Z</time></trkpt><trkpt lat="48.97349997842123" lon="2.487949849717535"><ele>70.75</ele><time>2026-03-30T14:50:10.999Z</time></trkpt><trkpt lat="48.97360306718274" lon="2.4881093900296256"><ele>71.5</ele><time>2026-03-30T14:50:11.999Z</time></trkpt><trkpt lat="48.97370585421075" lon="2.488266154513924"><ele>72.25</ele><time>2026-03-30T14:50:12.999Z</time></trkpt><trkpt lat="48.97380193995511" lon="2.488423617950531"><ele>73.0</ele><time>2026-03-30T14:50:13.999Z</time></trkpt><trkpt lat="48.97390225287351" lon="2.488579422880482"><ele>73.0</ele><time>2026-03-30T14:50:14.999Z</time></trkpt><trkpt lat="48.974009517944765" lon="2.488743647584536"><ele>73.0</ele><time>2026-03-30T14:50:15.999Z</time></trkpt><trkpt lat="48.9741149777171" lon="2.4889069135245934"><ele>73.0</ele><time>2026-03-30T14:50:16.999Z</time></trkpt><trkpt lat="48.9742189511406" lon="2.4890603491711856"><ele>73.0</ele><time>2026-03-30T14:50:17.999Z</time></trkpt><trkpt lat="48.97432234509233" lon="2.48920996925626"><ele>73.0</ele><time>2026-03-30T14:50:18.999Z</time></trkpt><trkpt lat="48.97441924070916" lon="2.4893556534899663"><ele>73.0</ele><time>2026-03-30T14:50:19.999Z</time></trkpt><trkpt lat="48.9745108865434" lon="2.489496343341052"><ele>73.0</ele><time>2026-03-30T14:50:20.999Z</time></trkpt><trkpt lat="48.9746019018416" lon="2.489632156675902"><ele>73.0</ele><time>2026-03-30T14:50:21.999Z</time></trkpt><trkpt lat="48.974669830576396" lon="2.4897663084180586"><ele>73.6</ele><time>2026-03-30T14:50:22.999Z</time></trkpt><trkpt lat="48.974744804464294" lon="2.489902743259291"><ele>74.19999999999999</ele><time>2026-03-30T14:50:23.999Z</time></trkpt><trkpt lat="48.97480916678" lon="2.4900467229658223"><ele>74.8</ele><time>2026-03-30T14:50:24.999Z</time></trkpt><trkpt lat="48.97485489091589" lon="2.490196783579767"><ele>75.39999999999999</ele><time>2026-03-30T14:50:25.999Z</time></trkpt><trkpt lat="48.97487067343105" lon="2.4903382059211445"><ele>76.0</ele><time>2026-03-30T14:50:26.999Z</time></trkpt><trkpt lat="48.974878009398786" lon="2.4904775965964965"><ele>76.0</ele><time>2026-03-30T14:50:27.998Z</time></trkpt><trkpt lat="48.974855186717726" lon="2.490628185229665"><ele>76.0</ele><time>2026-03-30T14:50:28.998Z</time></trkpt><trkpt lat="48.974798253378616" lon="2.4907700596547726"><ele>76.0</ele><time>2026-03-30T14:50:29.998Z</time></trkpt><trkpt lat="48.97472932272538" lon="2.4908918257820467"><ele>76.0</ele><time>2026-03-30T14:50:30.998Z</time></trkpt><trkpt lat="48.97463906624862" lon="2.4909633209635387"><ele>76.0</ele><time>2026-03-30T14:50:31.998Z</time></trkpt><trkpt lat="48.97454361274147" lon="2.491008809239932"><ele>76.0</ele><time>2026-03-30T14:50:32.998Z</time></trkpt><trkpt lat="48.97444555548965" lon="2.491032492716288"><ele>76.0</ele><time>2026-03-30T14:50:33.998Z</time></trkpt><trkpt lat="48.97434828892763" lon="2.4910527944700247"><ele>76.0</ele><time>2026-03-30T14:50:34.998Z</time></trkpt><trkpt lat="48.974246217961365" lon="2.49104681757297"><ele>76.0</ele><time>2026-03-30T14:50:35.998Z</time></trkpt><trkpt lat="48.97413386785179" lon="2.4910421293730503"><ele>76.0</ele><time>2026-03-30T14:50:36.998Z</time></trkpt><trkpt lat="48.974022447286906" lon="2.4910123305326697"><ele>76.39999999999999</ele><time>2026-03-30T14:50:37.998Z</time></trkpt><trkpt lat="48.97392704029384" lon="2.490939537218179"><ele>76.8</ele><time>2026-03-30T14:50:38.998Z</time></trkpt><trkpt lat="48.973854431767236" lon="2.4908366255002643"><ele>77.19999999999999</ele><time>2026-03-30T14:50:39.998Z</time></trkpt><trkpt lat="48.9738057075571" lon="2.4906965676231954"><ele>77.6</ele><time>2026-03-30T14:50:40.998Z</time></trkpt><trkpt lat="48.97377745276301" lon="2.490547265750229"><ele>78.0</ele><time>2026-03-30T14:50:41.998Z</time></trkpt><trkpt lat="48.973767704925656" lon="2.4903905488602565"><ele>78.0</ele><time>2026-03-30T14:50:42.998Z</time></trkpt><trkpt lat="48.97379828203356" lon="2.490231739204345"><ele>78.0</ele><time>2026-03-30T14:50:43.998Z</time></trkpt><trkpt lat="48.973830222828866" lon="2.490068522216583"><ele>78.0</ele><time>2026-03-30T14:50:44.998Z</time></trkpt><trkpt lat="48.97386045018095" lon="2.4898884284828497"><ele>78.0</ele><time>2026-03-30T14:50:45.998Z</time></trkpt><trkpt lat="48.97391195379366" lon="2.489688197508903"><ele>77.0</ele><time>2026-03-30T14:50:46.998Z</time></trkpt><trkpt lat="48.97396672131028" lon="2.489460717220433"><ele>76.0</ele><time>2026-03-30T14:50:47.998Z</time></trkpt><trkpt lat="48.97403261029591" lon="2.4892463529731668"><ele>75.0</ele><time>2026-03-30T14:50:48.998Z</time></trkpt><trkpt lat="48.97406625495374" lon="2.4890556589852952"><ele>74.0</ele><time>2026-03-30T14:50:50Z</time></trkpt><trkpt lat="48.97410661378184" lon="2.4888283840869563"><ele>74.0</ele><time>2026-03-30T14:50:51Z</time></trkpt><trkpt lat="48.974159701599895" lon="2.4886188356930936"><ele>74.0</ele><time>2026-03-30T14:50:52Z</time></trkpt><trkpt lat="48.974195511995056" lon="2.488422796424877"><ele>74.0</ele><time>2026-03-30T14:50:53Z</time></trkpt><trkpt lat="48.97425421416522" lon="2.4882199998407337"><ele>74.0</ele><time>2026-03-30T14:50:54Z</time></trkpt><trkpt lat="48.97433078448492" lon="2.487974380214887"><ele>74.0</ele><time>2026-03-30T14:50:55Z</time></trkpt><trkpt lat="48.97439871407285" lon="2.4877597877511577"><ele>74.0</ele><time>2026-03-30T14:50:56Z</time></trkpt><trkpt lat="48.974457280373706" lon="2.487549063580504"><ele>74.0</ele><time>2026-03-30T14:50:57Z</time></trkpt><trkpt lat="48.97451306414199" lon="2.4873309672560597"><ele>74.0</ele><time>2026-03-30T14:50:58Z</time></trkpt><trkpt lat="48.97456560932914" lon="2.4870985465726387"><ele>74.0</ele><time>2026-03-30T14:50:59Z</time></trkpt><trkpt lat="48.97461711444826" lon="2.48686799676042"><ele>74.0</ele><time>2026-03-30T14:51:00Z</time></trkpt><trkpt lat="48.974665150892946" lon="2.486643237358128"><ele>74.0</ele><time>2026-03-30T14:51:01Z</time></trkpt><trkpt lat="48.9747202371303" lon="2.4864061185486688"><ele>74.0</ele><time>2026-03-30T14:51:02Z</time></trkpt><trkpt lat="48.974785761160184" lon="2.486167700830811"><ele>74.0</ele><time>2026-03-30T14:51:03Z</time></trkpt><trkpt lat="48.97485692038594" lon="2.4859197171888856"><ele>73.66666666666667</ele><time>2026-03-30T14:51:04Z</time></trkpt><trkpt lat="48.974932394379415" lon="2.4856540042792123"><ele>73.33333333333333</ele><time>2026-03-30T14:51:05Z</time></trkpt><trkpt lat="48.975006074797015" lon="2.4853555434288093"><ele>73.0</ele><time>2026-03-30T14:51:06Z</time></trkpt><trkpt lat="48.97510815462986" lon="2.4850483370712273"><ele>72.66666666666666</ele><time>2026-03-30T14:51:07Z</time></trkpt><trkpt lat="48.97520634730956" lon="2.4847508153164988"><ele>72.33333333333333</ele><time>2026-03-30T14:51:08Z</time></trkpt><trkpt lat="48.97529082692299" lon="2.4844772851643557"><ele>72.0</ele><time>2026-03-30T14:51:09Z</time></trkpt><trkpt lat="48.97536689660479" lon="2.484215759948453"><ele>72.0</ele><time>2026-03-30T14:51:10Z</time></trkpt><trkpt lat="48.97544330886749" lon="2.483961717524283"><ele>72.0</ele><time>2026-03-30T14:51:11Z</time></trkpt><trkpt lat="48.97551782931243" lon="2.4837082494073037"><ele>72.0</ele><time>2026-03-30T14:51:12Z</time></trkpt><trkpt lat="48.97559331263881" lon="2.4834499803625225"><ele>71.66666666666667</ele><time>2026-03-30T14:51:13Z</time></trkpt><trkpt lat="48.97567073792173" lon="2.483179833238484"><ele>71.33333333333334</ele><time>2026-03-30T14:51:14Z</time></trkpt><trkpt lat="48.97575249821888" lon="2.482894573293526"><ele>71.0</ele><time>2026-03-30T14:51:15Z</time></trkpt><trkpt lat="48.97583288112644" lon="2.482617975426751"><ele>71.33333333333334</ele><time>2026-03-30T14:51:16Z</time></trkpt><trkpt lat="48.97591411507533" lon="2.4823464823985923"><ele>71.66666666666667</ele><time>2026-03-30T14:51:17Z</time></trkpt><trkpt lat="48.97599079245366" lon="2.4820768212823365"><ele>72.0</ele><time>2026-03-30T14:51:18Z</time></trkpt><trkpt lat="48.9760697056174" lon="2.4818009178296423"><ele>72.0</ele><time>2026-03-30T14:51:19Z</time></trkpt><trkpt lat="48.976150352769075" lon="2.4815104219685336"><ele>72.0</ele><time>2026-03-30T14:51:20Z</time></trkpt><trkpt lat="48.97622731297781" lon="2.4812166904052093"><ele>72.0</ele><time>2026-03-30T14:51:21Z</time></trkpt><trkpt lat="48.97630673251265" lon="2.4809132446028954"><ele>71.66666666666667</ele><time>2026-03-30T14:51:22Z</time></trkpt><trkpt lat="48.97638317269728" lon="2.4806094155136944"><ele>71.33333333333334</ele><time>2026-03-30T14:51:23Z</time></trkpt><trkpt lat="48.97645665737215" lon="2.480297408478927"><ele>71.0</ele><time>2026-03-30T14:51:24Z</time></trkpt><trkpt lat="48.97652692999744" lon="2.4799709960772973"><ele>71.0</ele><time>2026-03-30T14:51:25Z</time></trkpt><trkpt lat="48.97659342801496" lon="2.4796327780007617"><ele>71.0</ele><time>2026-03-30T14:51:26Z</time></trkpt><trkpt lat="48.97665700170642" lon="2.479303712327398"><ele>71.66666666666667</ele><time>2026-03-30T14:51:27Z</time></trkpt><trkpt lat="48.976712841291786" lon="2.4789858818285406"><ele>72.33333333333333</ele><time>2026-03-30T14:51:28Z</time></trkpt><trkpt lat="48.97676659738366" lon="2.4786583548263748"><ele>73.0</ele><time>2026-03-30T14:51:29Z</time></trkpt><trkpt lat="48.9768238945024" lon="2.4783147751553485"><ele>73.0</ele><time>2026-03-30T14:51:30Z</time></trkpt><trkpt lat="48.97687654499147" lon="2.477966901086157"><ele>73.0</ele><time>2026-03-30T14:51:31Z</time></trkpt><trkpt lat="48.9769230616764" lon="2.477618247689999"><ele>73.0</ele><time>2026-03-30T14:51:32Z</time></trkpt><trkpt lat="48.976962950158" lon="2.4772631730644523"><ele>73.0</ele><time>2026-03-30T14:51:33Z</time></trkpt><trkpt lat="48.97700060518301" lon="2.4769091572458097"><ele>72.5</ele><time>2026-03-30T14:51:34Z</time></trkpt><trkpt lat="48.977032670756444" lon="2.476560288264002"><ele>72.0</ele><time>2026-03-30T14:51:35Z</time></trkpt><trkpt lat="48.977060968302716" lon="2.476227449850633"><ele>72.0</ele><time>2026-03-30T14:51:36Z</time></trkpt><trkpt lat="48.977088721656905" lon="2.4759016350110516"><ele>72.0</ele><time>2026-03-30T14:51:36.999Z</time></trkpt><trkpt lat="48.977116177949064" lon="2.47554950381286"><ele>72.0</ele><time>2026-03-30T14:51:37.999Z</time></trkpt><trkpt lat="48.97714028916989" lon="2.475197519710559"><ele>72.66666666666667</ele><time>2026-03-30T14:51:38.999Z</time></trkpt><trkpt lat="48.977160380538834" lon="2.474858026492165"><ele>73.33333333333334</ele><time>2026-03-30T14:51:39.999Z</time></trkpt><trkpt lat="48.97717941285926" lon="2.4745388639428567"><ele>74.0</ele><time>2026-03-30T14:51:40.999Z</time></trkpt><trkpt lat="48.97719606715597" lon="2.474214897633461"><ele>72.0</ele><time>2026-03-30T14:51:41.999Z</time></trkpt><trkpt lat="48.977220077601174" lon="2.473868369544776"><ele>70.0</ele><time>2026-03-30T14:51:42.999Z</time></trkpt><trkpt lat="48.97725227922848" lon="2.4735156181390257"><ele>69.5</ele><time>2026-03-30T14:51:43.999Z</time></trkpt><trkpt lat="48.9772791697052" lon="2.473166111194916"><ele>69.0</ele><time>2026-03-30T14:51:44.999Z</time></trkpt><trkpt lat="48.97730025511165" lon="2.472826691614884"><ele>68.66666666666667</ele><time>2026-03-30T14:51:45.999Z</time></trkpt><trkpt lat="48.97731391903761" lon="2.47250840479832"><ele>68.33333333333334</ele><time>2026-03-30T14:51:46.999Z</time></trkpt><trkpt lat="48.97732882804483" lon="2.4722086729274944"><ele>68.0</ele><time>2026-03-30T14:51:47.999Z</time></trkpt><trkpt lat="48.977350010109674" lon="2.471907840540995"><ele>68.0</ele><time>2026-03-30T14:51:48.999Z</time></trkpt><trkpt lat="48.97737230301124" lon="2.4716016711132722"><ele>68.0</ele><time>2026-03-30T14:51:49.999Z</time></trkpt><trkpt lat="48.97739479032375" lon="2.4712905176378914"><ele>68.0</ele><time>2026-03-30T14:51:50.999Z</time></trkpt><trkpt lat="48.977411546755626" lon="2.470996544321282"><ele>68.0</ele><time>2026-03-30T14:51:51.999Z</time></trkpt><trkpt lat="48.977424147550614" lon="2.4707160098361314"><ele>68.0</ele><time>2026-03-30T14:51:52.999Z</time></trkpt><trkpt lat="48.97744105400322" lon="2.4704247620416013"><ele>68.0</ele><time>2026-03-30T14:51:53.999Z</time></trkpt><trkpt lat="48.97746010284261" lon="2.470143158479995"><ele>68.33333333333334</ele><time>2026-03-30T14:51:54.999Z</time></trkpt><trkpt lat="48.97748508841053" lon="2.4698654944563394"><ele>68.66666666666667</ele><time>2026-03-30T14:51:55.999Z</time></trkpt><trkpt lat="48.97750654798539" lon="2.469608405004767"><ele>69.0</ele><time>2026-03-30T14:51:56.999Z</time></trkpt><trkpt lat="48.977528143557336" lon="2.4693661594916105"><ele>69.33333333333333</ele><time>2026-03-30T14:51:57.999Z</time></trkpt><trkpt lat="48.97754759172622" lon="2.469124609127349"><ele>69.66666666666666</ele><time>2026-03-30T14:51:58.999Z</time></trkpt><trkpt lat="48.97756609257554" lon="2.4688751481697118"><ele>70.0</ele><time>2026-03-30T14:51:59.999Z</time></trkpt><trkpt lat="48.97757670623887" lon="2.4686400037029124"><ele>70.0</ele><time>2026-03-30T14:52:00.999Z</time></trkpt><trkpt lat="48.97759087482405" lon="2.468406426130717"><ele>70.0</ele><time>2026-03-30T14:52:01.999Z</time></trkpt><trkpt lat="48.97760340513994" lon="2.46817908531127"><ele>70.0</ele><time>2026-03-30T14:52:02.999Z</time></trkpt><trkpt lat="48.97759555812118" lon="2.4679494903533263"><ele>69.75</ele><time>2026-03-30T14:52:03.999Z</time></trkpt><trkpt lat="48.97763143433147" lon="2.467763754494352"><ele>69.5</ele><time>2026-03-30T14:52:04.999Z</time></trkpt><trkpt lat="48.97765050799083" lon="2.4675834152802754"><ele>69.25</ele><time>2026-03-30T14:52:05.999Z</time></trkpt><trkpt lat="48.9776824744363" lon="2.467411635862927"><ele>69.0</ele><time>2026-03-30T14:52:06.999Z</time></trkpt><trkpt lat="48.977734906122116" lon="2.467245012166549"><ele>68.75</ele><time>2026-03-30T14:52:07.999Z</time></trkpt><trkpt lat="48.97780200851809" lon="2.4670735763894984"><ele>68.5</ele><time>2026-03-30T14:52:08.999Z</time></trkpt><trkpt lat="48.9778808875628" lon="2.4669045231180693"><ele>68.25</ele><time>2026-03-30T14:52:09.999Z</time></trkpt><trkpt lat="48.97796950759717" lon="2.4667435079896456"><ele>68.0</ele><time>2026-03-30T14:52:10.999Z</time></trkpt><trkpt lat="48.97806911100519" lon="2.4665893025129053"><ele>68.0</ele><time>2026-03-30T14:52:11.999Z</time></trkpt><trkpt lat="48.97817147725599" lon="2.4664370913302336"><ele>68.0</ele><time>2026-03-30T14:52:12.999Z</time></trkpt><trkpt lat="48.978276912129004" lon="2.4662829083442195"><ele>68.0</ele><time>2026-03-30T14:52:13.999Z</time></trkpt><trkpt lat="48.97838068212337" lon="2.4661313993965037"><ele>68.0</ele><time>2026-03-30T14:52:14.999Z</time></trkpt><trkpt lat="48.97848398944874" lon="2.4659948266017495"><ele>68.25</ele><time>2026-03-30T14:52:15.999Z</time></trkpt><trkpt lat="48.97858858775955" lon="2.4658800983701696"><ele>68.5</ele><time>2026-03-30T14:52:16.999Z</time></trkpt><trkpt lat="48.978709792412225" lon="2.4658147514367577"><ele>68.75</ele><time>2026-03-30T14:52:17.999Z</time></trkpt><trkpt lat="48.97883818985082" lon="2.4657816900773244"><ele>69.0</ele><time>2026-03-30T14:52:18.999Z</time></trkpt><trkpt lat="48.97897383405997" lon="2.465773316869692"><ele>69.0</ele><time>2026-03-30T14:52:19.999Z</time></trkpt><trkpt lat="48.97911173768943" lon="2.465798333525432"><ele>69.0</ele><time>2026-03-30T14:52:20.999Z</time></trkpt><trkpt lat="48.97924465887691" lon="2.4658588371385406"><ele>69.0</ele><time>2026-03-30T14:52:21.999Z</time></trkpt><trkpt lat="48.979374337287375" lon="2.4659438286612394"><ele>69.0</ele><time>2026-03-30T14:52:22.999Z</time></trkpt><trkpt lat="48.97950582870994" lon="2.4660512415579343"><ele>68.66666666666667</ele><time>2026-03-30T14:52:23.999Z</time></trkpt><trkpt lat="48.979639012240966" lon="2.4661719868253655"><ele>68.33333333333334</ele><time>2026-03-30T14:52:24.999Z</time></trkpt><trkpt lat="48.979778691310926" lon="2.4662904374672423"><ele>68.0</ele><time>2026-03-30T14:52:25.999Z</time></trkpt><trkpt lat="48.979920953890556" lon="2.466405705688504"><ele>67.66666666666667</ele><time>2026-03-30T14:52:26.999Z</time></trkpt><trkpt lat="48.98007272547298" lon="2.466523473966143"><ele>67.33333333333333</ele><time>2026-03-30T14:52:27.999Z</time></trkpt><trkpt lat="48.980218228781006" lon="2.466639836814285"><ele>67.0</ele><time>2026-03-30T14:52:28.999Z</time></trkpt><trkpt lat="48.980359489458316" lon="2.4667565869607295"><ele>67.0</ele><time>2026-03-30T14:52:29.999Z</time></trkpt><trkpt lat="48.980518435230216" lon="2.466873177619842"><ele>67.0</ele><time>2026-03-30T14:52:30.999Z</time></trkpt><trkpt lat="48.980704782326676" lon="2.4669918144839653"><ele>67.0</ele><time>2026-03-30T14:52:31.999Z</time></trkpt><trkpt lat="48.980904526081076" lon="2.4671304677644263"><ele>66.0</ele><time>2026-03-30T14:52:32.998Z</time></trkpt><trkpt lat="48.9811096744719" lon="2.467298738702823"><ele>65.0</ele><time>2026-03-30T14:52:33.998Z</time></trkpt><trkpt lat="48.981314472529924" lon="2.467474813709891"><ele>65.0</ele><time>2026-03-30T14:52:34.998Z</time></trkpt><trkpt lat="48.98152197342491" lon="2.4676414590633646"><ele>65.0</ele><time>2026-03-30T14:52:35.998Z</time></trkpt><trkpt lat="48.98171993137737" lon="2.4677969249541367"><ele>65.66666666666667</ele><time>2026-03-30T14:52:36.998Z</time></trkpt><trkpt lat="48.98191813119652" lon="2.467954207491988"><ele>66.33333333333333</ele><time>2026-03-30T14:52:37.998Z</time></trkpt><trkpt lat="48.98211696156025" lon="2.4681138530628273"><ele>67.0</ele><time>2026-03-30T14:52:38.998Z</time></trkpt><trkpt lat="48.98231983960721" lon="2.468275101058574"><ele>68.0</ele><time>2026-03-30T14:52:39.998Z</time></trkpt><trkpt lat="48.98252657544426" lon="2.4684435283156563"><ele>69.0</ele><time>2026-03-30T14:52:40.998Z</time></trkpt><trkpt lat="48.98273461500957" lon="2.4686195165156257"><ele>69.0</ele><time>2026-03-30T14:52:41.998Z</time></trkpt><trkpt lat="48.98294422849884" lon="2.4688049676137567"><ele>69.0</ele><time>2026-03-30T14:52:42.998Z</time></trkpt><trkpt lat="48.983155568501864" lon="2.468996899965669"><ele>69.0</ele><time>2026-03-30T14:52:43.998Z</time></trkpt><trkpt lat="48.983367685293494" lon="2.469192416684589"><ele>69.0</ele><time>2026-03-30T14:52:44.998Z</time></trkpt><trkpt lat="48.98357799402675" lon="2.4693878675845724"><ele>69.0</ele><time>2026-03-30T14:52:45.998Z</time></trkpt><trkpt lat="48.98378527838541" lon="2.469579100809883"><ele>69.0</ele><time>2026-03-30T14:52:46.998Z</time></trkpt><trkpt lat="48.98399924782764" lon="2.469773154703039"><ele>71.0</ele><time>2026-03-30T14:52:47.998Z</time></trkpt><trkpt lat="48.984208124531044" lon="2.4699665802048365"><ele>73.0</ele><time>2026-03-30T14:52:48.998Z</time></trkpt><trkpt lat="48.984417060694405" lon="2.4701557233471463"><ele>73.0</ele><time>2026-03-30T14:52:49.998Z</time></trkpt><trkpt lat="48.984621314948804" lon="2.470342610171782"><ele>73.0</ele><time>2026-03-30T14:52:50.998Z</time></trkpt><trkpt lat="48.98482151719889" lon="2.470527837213703"><ele>72.5</ele><time>2026-03-30T14:52:51.998Z</time></trkpt><trkpt lat="48.985022811377604" lon="2.4707182892871318"><ele>72.0</ele><time>2026-03-30T14:52:52.998Z</time></trkpt><trkpt lat="48.98522199968557" lon="2.47090305849525"><ele>72.0</ele><time>2026-03-30T14:52:53.998Z</time></trkpt><trkpt lat="48.98542212302912" lon="2.4710876732046443"><ele>72.0</ele><time>2026-03-30T14:52:54.998Z</time></trkpt><trkpt lat="48.985624062702605" lon="2.4712726431430556"><ele>71.5</ele><time>2026-03-30T14:52:56Z</time></trkpt><trkpt lat="48.98582498055353" lon="2.4714607264910926"><ele>71.0</ele><time>2026-03-30T14:52:57Z</time></trkpt><trkpt lat="48.98602631104118" lon="2.4716464044943605"><ele>70.0</ele><time>2026-03-30T14:52:58Z</time></trkpt><trkpt lat="48.986225644352785" lon="2.471831015744974"><ele>69.0</ele><time>2026-03-30T14:52:59Z</time></trkpt><trkpt lat="48.986423565168984" lon="2.472018273772663"><ele>69.0</ele><time>2026-03-30T14:53:00Z</time></trkpt><trkpt lat="48.986625684005524" lon="2.4722060063719122"><ele>69.0</ele><time>2026-03-30T14:53:01Z</time></trkpt><trkpt lat="48.986828306576356" lon="2.472391497202109"><ele>70.0</ele><time>2026-03-30T14:53:02Z</time></trkpt><trkpt lat="48.98702984674764" lon="2.4725809702365917"><ele>71.0</ele><time>2026-03-30T14:53:03Z</time></trkpt><trkpt lat="48.98722924705714" lon="2.472770087015442"><ele>71.0</ele><time>2026-03-30T14:53:04Z</time></trkpt><trkpt lat="48.987431841544876" lon="2.472955712872462"><ele>71.0</ele><time>2026-03-30T14:53:05Z</time></trkpt><trkpt lat="48.9876346271012" lon="2.4731373577595717"><ele>73.0</ele><time>2026-03-30T14:53:06Z</time></trkpt><trkpt lat="48.98783706708916" lon="2.473317231240399"><ele>75.0</ele><time>2026-03-30T14:53:07Z</time></trkpt><trkpt lat="48.988039084535295" lon="2.47349177801514"><ele>75.0</ele><time>2026-03-30T14:53:08Z</time></trkpt><trkpt lat="48.988242174726714" lon="2.4736674905097984"><ele>75.0</ele><time>2026-03-30T14:53:09Z</time></trkpt><trkpt lat="48.98844497623371" lon="2.4738465717855638"><ele>77.0</ele><time>2026-03-30T14:53:10Z</time></trkpt><trkpt lat="48.98864509428783" lon="2.474027714496308"><ele>79.0</ele><time>2026-03-30T14:53:11Z</time></trkpt><trkpt lat="48.98884549234386" lon="2.4742100136364296"><ele>79.0</ele><time>2026-03-30T14:53:12Z</time></trkpt><trkpt lat="48.98904804375617" lon="2.4743922415967594"><ele>79.0</ele><time>2026-03-30T14:53:13Z</time></trkpt><trkpt lat="48.9892516482447" lon="2.474574567004901"><ele>80.5</ele><time>2026-03-30T14:53:14Z</time></trkpt><trkpt lat="48.98945636876924" lon="2.4747564981051644"><ele>82.0</ele><time>2026-03-30T14:53:15Z</time></trkpt><trkpt lat="48.98965867598836" lon="2.4749377518809177"><ele>82.0</ele><time>2026-03-30T14:53:16Z</time></trkpt><trkpt lat="48.98986421612221" lon="2.4751214034373676"><ele>82.0</ele><time>2026-03-30T14:53:17Z</time></trkpt><trkpt lat="48.99006678079431" lon="2.4753044205741053"><ele>82.0</ele><time>2026-03-30T14:53:18Z</time></trkpt><trkpt lat="48.99027475405726" lon="2.4754866745847828"><ele>82.0</ele><time>2026-03-30T14:53:19Z</time></trkpt><trkpt lat="48.990483457473" lon="2.4756693067487223"><ele>82.0</ele><time>2026-03-30T14:53:20Z</time></trkpt><trkpt lat="48.99069161828583" lon="2.475855353408958"><ele>82.0</ele><time>2026-03-30T14:53:21Z</time></trkpt><trkpt lat="48.990899378171015" lon="2.47604175881506"><ele>82.0</ele><time>2026-03-30T14:53:22Z</time></trkpt><trkpt lat="48.99110954511648" lon="2.4762313728146337"><ele>82.0</ele><time>2026-03-30T14:53:23Z</time></trkpt><trkpt lat="48.99131861264724" lon="2.476420858439532"><ele>82.0</ele><time>2026-03-30T14:53:24Z</time></trkpt><trkpt lat="48.99152840985989" lon="2.476609923399676"><ele>82.0</ele><time>2026-03-30T14:53:25Z</time></trkpt><trkpt lat="48.99174217718665" lon="2.476799572613834"><ele>81.5</ele><time>2026-03-30T14:53:26Z</time></trkpt><trkpt lat="48.991955158757875" lon="2.4769906633126237"><ele>81.0</ele><time>2026-03-30T14:53:27Z</time></trkpt><trkpt lat="48.99216579712658" lon="2.477183994487136"><ele>81.0</ele><time>2026-03-30T14:53:28Z</time></trkpt><trkpt lat="48.992378433480575" lon="2.4773759588700206"><ele>81.0</ele><time>2026-03-30T14:53:29Z</time></trkpt><trkpt lat="48.99259358159971" lon="2.477565737480561"><ele>80.5</ele><time>2026-03-30T14:53:30Z</time></trkpt><trkpt lat="48.992807970624526" lon="2.4777583436637065"><ele>80.0</ele><time>2026-03-30T14:53:31Z</time></trkpt><trkpt lat="48.99302446587884" lon="2.477949554807634"><ele>80.0</ele><time>2026-03-30T14:53:32Z</time></trkpt><trkpt lat="48.99323821959823" lon="2.478139675767316"><ele>80.0</ele><time>2026-03-30T14:53:33Z</time></trkpt><trkpt lat="48.99344882667841" lon="2.4783303973863813"><ele>81.0</ele><time>2026-03-30T14:53:33.999Z</time></trkpt><trkpt lat="48.9936587392008" lon="2.478524350826536"><ele>82.0</ele><time>2026-03-30T14:53:34.999Z</time></trkpt><trkpt lat="48.993867342552086" lon="2.478711081825818"><ele>83.0</ele><time>2026-03-30T14:53:35.999Z</time></trkpt><trkpt lat="48.99407762988693" lon="2.4788996170470914"><ele>84.0</ele><time>2026-03-30T14:53:36.999Z</time></trkpt><trkpt lat="48.99428346589348" lon="2.479080922167992"><ele>85.0</ele><time>2026-03-30T14:53:37.999Z</time></trkpt><trkpt lat="48.99447978885037" lon="2.4792557924143295"><ele>86.0</ele><time>2026-03-30T14:53:38.999Z</time></trkpt><trkpt lat="48.99466756127302" lon="2.479422568156088"><ele>87.0</ele><time>2026-03-30T14:53:39.999Z</time></trkpt><trkpt lat="48.99485564175216" lon="2.4795907050478245"><ele>87.66666666666667</ele><time>2026-03-30T14:53:40.999Z</time></trkpt><trkpt lat="48.99504436745983" lon="2.4797588487133155"><ele>88.33333333333334</ele><time>2026-03-30T14:53:41.999Z</time></trkpt><trkpt lat="48.99523278112964" lon="2.4799261028988218"><ele>89.0</ele><time>2026-03-30T14:53:42.999Z</time></trkpt><trkpt lat="48.995421855298076" lon="2.480094320023358"><ele>89.0</ele><time>2026-03-30T14:53:43.999Z</time></trkpt><trkpt lat="48.995611136080555" lon="2.4802647244675033"><ele>89.0</ele><time>2026-03-30T14:53:44.999Z</time></trkpt><trkpt lat="48.99580082608513" lon="2.480433184804475"><ele>89.0</ele><time>2026-03-30T14:53:45.999Z</time></trkpt><trkpt lat="48.995991098741314" lon="2.480601583723557"><ele>89.33333333333334</ele><time>2026-03-30T14:53:46.999Z</time></trkpt><trkpt lat="48.996173300010604" lon="2.480765328882012"><ele>89.66666666666667</ele><time>2026-03-30T14:53:47.999Z</time></trkpt><trkpt lat="48.99634116326921" lon="2.480918946105038"><ele>90.0</ele><time>2026-03-30T14:53:48.999Z</time></trkpt><trkpt lat="48.99650548404021" lon="2.481068279280425"><ele>90.0</ele><time>2026-03-30T14:53:49.999Z</time></trkpt><trkpt lat="48.99667203592003" lon="2.4812159006460455"><ele>90.0</ele><time>2026-03-30T14:53:50.999Z</time></trkpt><trkpt lat="48.99683741953123" lon="2.4813625986674226"><ele>90.0</ele><time>2026-03-30T14:53:51.999Z</time></trkpt><trkpt lat="48.99700201394577" lon="2.4815124786431637"><ele>90.0</ele><time>2026-03-30T14:53:52.999Z</time></trkpt><trkpt lat="48.99716948719293" lon="2.4816637481349755"><ele>90.0</ele><time>2026-03-30T14:53:53.999Z</time></trkpt><trkpt lat="48.99733387533754" lon="2.481809787413265"><ele>90.0</ele><time>2026-03-30T14:53:54.999Z</time></trkpt><trkpt lat="48.99749317572227" lon="2.48195030150684"><ele>89.0</ele><time>2026-03-30T14:53:55.999Z</time></trkpt><trkpt lat="48.997653629116705" lon="2.4820903750811634"><ele>88.0</ele><time>2026-03-30T14:53:56.999Z</time></trkpt><trkpt lat="48.99781810239688" lon="2.482233440759663"><ele>87.0</ele><time>2026-03-30T14:53:57.999Z</time></trkpt><trkpt lat="48.99798396683644" lon="2.4823779023100525"><ele>87.0</ele><time>2026-03-30T14:53:58.999Z</time></trkpt><trkpt lat="48.99815303999552" lon="2.48252781488984"><ele>87.0</ele><time>2026-03-30T14:53:59.999Z</time></trkpt><trkpt lat="48.9983261761788" lon="2.4826835004728056"><ele>87.0</ele><time>2026-03-30T14:54:00.999Z</time></trkpt><trkpt lat="48.998504943185324" lon="2.482845294118952"><ele>85.33333333333333</ele><time>2026-03-30T14:54:01.999Z</time></trkpt><trkpt lat="48.998689423123366" lon="2.483013317764618"><ele>83.66666666666666</ele><time>2026-03-30T14:54:02.999Z</time></trkpt><trkpt lat="48.99888302493412" lon="2.4831849384908606"><ele>82.0</ele><time>2026-03-30T14:54:03.999Z</time></trkpt><trkpt lat="48.99908432894901" lon="2.4833661119930195"><ele>77.5</ele><time>2026-03-30T14:54:04.999Z</time></trkpt><trkpt lat="48.99928690023804" lon="2.4835591927414833"><ele>73.0</ele><time>2026-03-30T14:54:05.999Z</time></trkpt><trkpt lat="48.999486141668186" lon="2.4837481585180803"><ele>74.5</ele><time>2026-03-30T14:54:06.999Z</time></trkpt><trkpt lat="48.99968441017574" lon="2.4839384857894475"><ele>76.0</ele><time>2026-03-30T14:54:07.999Z</time></trkpt><trkpt lat="48.999880915117934" lon="2.484140956837495"><ele>76.0</ele><time>2026-03-30T14:54:08.999Z</time></trkpt><trkpt lat="49.00007556195578" lon="2.484348460847122"><ele>76.0</ele><time>2026-03-30T14:54:09.999Z</time></trkpt><trkpt lat="49.00027329183604" lon="2.4845600222716637"><ele>76.0</ele><time>2026-03-30T14:54:10.999Z</time></trkpt><trkpt lat="49.00047223236344" lon="2.4847791475005137"><ele>76.0</ele><time>2026-03-30T14:54:11.999Z</time></trkpt><trkpt lat="49.00066933415618" lon="2.4850039143387628"><ele>73.0</ele><time>2026-03-30T14:54:12.999Z</time></trkpt><trkpt lat="49.000863923656276" lon="2.485227057136713"><ele>70.0</ele><time>2026-03-30T14:54:13.999Z</time></trkpt><trkpt lat="49.00105034242678" lon="2.485444210080242"><ele>70.0</ele><time>2026-03-30T14:54:14.999Z</time></trkpt><trkpt lat="49.001230586374206" lon="2.485647298639627"><ele>70.0</ele><time>2026-03-30T14:54:15.999Z</time></trkpt><trkpt lat="49.00141590496304" lon="2.485849844617563"><ele>70.0</ele><time>2026-03-30T14:54:16.999Z</time></trkpt><trkpt lat="49.00159482002735" lon="2.486053553045699"><ele>70.0</ele><time>2026-03-30T14:54:17.999Z</time></trkpt><trkpt lat="49.00176030408494" lon="2.486245256324294"><ele>70.0</ele><time>2026-03-30T14:54:18.999Z</time></trkpt><trkpt lat="49.001925459463514" lon="2.4864370579297406"><ele>70.66666666666666</ele><time>2026-03-30T14:54:19.999Z</time></trkpt><trkpt lat="49.00209107346733" lon="2.486629215082051"><ele>71.33333333333333</ele><time>2026-03-30T14:54:20.999Z</time></trkpt><trkpt lat="49.002258313703216" lon="2.486821766754274"><ele>72.0</ele><time>2026-03-30T14:54:21.999Z</time></trkpt><trkpt lat="49.00243026433942" lon="2.4870193006820935"><ele>73.33333333333333</ele><time>2026-03-30T14:54:22.999Z</time></trkpt><trkpt lat="49.00260487200505" lon="2.4872179361546274"><ele>74.66666666666666</ele><time>2026-03-30T14:54:23.999Z</time></trkpt><trkpt lat="49.002776576820374" lon="2.4874082471179055"><ele>76.0</ele><time>2026-03-30T14:54:24.999Z</time></trkpt><trkpt lat="49.00294654708496" lon="2.487589782888752"><ele>76.0</ele><time>2026-03-30T14:54:25.999Z</time></trkpt><trkpt lat="49.00311990655898" lon="2.4877660069572896"><ele>76.0</ele><time>2026-03-30T14:54:26.999Z</time></trkpt><trkpt lat="49.003297204200095" lon="2.487930445683466"><ele>76.0</ele><time>2026-03-30T14:54:27.999Z</time></trkpt><trkpt lat="49.00348168303602" lon="2.4880952955450124"><ele>77.66666666666666</ele><time>2026-03-30T14:54:28.998Z</time></trkpt><trkpt lat="49.00367286032967" lon="2.488258890559219"><ele>79.33333333333333</ele><time>2026-03-30T14:54:29.998Z</time></trkpt><trkpt lat="49.00387100633397" lon="2.4884197134129185"><ele>81.0</ele><time>2026-03-30T14:54:30.998Z</time></trkpt><trkpt lat="49.004073109371895" lon="2.4885780802005693"><ele>84.0</ele><time>2026-03-30T14:54:31.998Z</time></trkpt><trkpt lat="49.00428567110285" lon="2.4887320742347536"><ele>87.0</ele><time>2026-03-30T14:54:32.998Z</time></trkpt><trkpt lat="49.00450675135889" lon="2.4888784087768085"><ele>87.0</ele><time>2026-03-30T14:54:33.998Z</time></trkpt><trkpt lat="49.004723856332745" lon="2.4890106960562006"><ele>87.0</ele><time>2026-03-30T14:54:34.998Z</time></trkpt><trkpt lat="49.00493997413971" lon="2.4891272958391877"><ele>89.0</ele><time>2026-03-30T14:54:35.998Z</time></trkpt><trkpt lat="49.005154270982594" lon="2.489235669956735"><ele>91.0</ele><time>2026-03-30T14:54:36.998Z</time></trkpt><trkpt lat="49.00537019890131" lon="2.4893415376559545"><ele>91.0</ele><time>2026-03-30T14:54:37.998Z</time></trkpt><trkpt lat="49.00558686731217" lon="2.4894403610601428"><ele>91.0</ele><time>2026-03-30T14:54:38.998Z</time></trkpt><trkpt lat="49.005810917342615" lon="2.489532092649854"><ele>92.0</ele><time>2026-03-30T14:54:39.998Z</time></trkpt><trkpt lat="49.006033626166385" lon="2.4896195479220427"><ele>93.0</ele><time>2026-03-30T14:54:40.998Z</time></trkpt><trkpt lat="49.006259798457165" lon="2.48970471775725"><ele>93.0</ele><time>2026-03-30T14:54:41.998Z</time></trkpt><trkpt lat="49.00648860557115" lon="2.4897920027618143"><ele>93.0</ele><time>2026-03-30T14:54:42.998Z</time></trkpt><trkpt lat="49.006723356036574" lon="2.4898822127169056"><ele>94.0</ele><time>2026-03-30T14:54:43.998Z</time></trkpt><trkpt lat="49.00695983995385" lon="2.48997216760769"><ele>95.0</ele><time>2026-03-30T14:54:44.998Z</time></trkpt><trkpt lat="49.007209398791545" lon="2.49006488659125"><ele>95.0</ele><time>2026-03-30T14:54:45.998Z</time></trkpt><trkpt lat="49.0074582803707" lon="2.490158082566161"><ele>95.0</ele><time>2026-03-30T14:54:46.998Z</time></trkpt><trkpt lat="49.00770493386961" lon="2.490257766595996"><ele>96.5</ele><time>2026-03-30T14:54:47.998Z</time></trkpt><trkpt lat="49.00795019426945" lon="2.49035963954866"><ele>98.0</ele><time>2026-03-30T14:54:48.998Z</time></trkpt><trkpt lat="49.0081940465565" lon="2.4904598212064366"><ele>98.5</ele><time>2026-03-30T14:54:49.998Z</time></trkpt><trkpt lat="49.00843364263827" lon="2.4905548737526315"><ele>99.0</ele><time>2026-03-30T14:54:50.998Z</time></trkpt><trkpt lat="49.008674260800206" lon="2.490644994517351"><ele>99.0</ele><time>2026-03-30T14:54:51.998Z</time></trkpt><trkpt lat="49.008915402669345" lon="2.4907380222438196"><ele>99.0</ele><time>2026-03-30T14:54:52.998Z</time></trkpt><trkpt lat="49.00915589828315" lon="2.4908317620165246"><ele>100.0</ele><time>2026-03-30T14:54:53.998Z</time></trkpt><trkpt lat="49.009397650119716" lon="2.4909220442673483"><ele>101.0</ele><time>2026-03-30T14:54:54.998Z</time></trkpt><trkpt lat="49.00963861822124" lon="2.491015202632592"><ele>101.0</ele><time>2026-03-30T14:54:55.998Z</time></trkpt><trkpt lat="49.00987960970847" lon="2.4911085826317785"><ele>101.0</ele><time>2026-03-30T14:54:56.998Z</time></trkpt><trkpt lat="49.01011785354036" lon="2.4911983241091353"><ele>101.5</ele><time>2026-03-30T14:54:57.998Z</time></trkpt><trkpt lat="49.01035586158218" lon="2.491287541048996"><ele>102.0</ele><time>2026-03-30T14:54:58.998Z</time></trkpt><trkpt lat="49.01059327460669" lon="2.4913755408744684"><ele>102.5</ele><time>2026-03-30T14:54:59.998Z</time></trkpt><trkpt lat="49.01082712826256" lon="2.491464928976475"><ele>103.0</ele><time>2026-03-30T14:55:00.998Z</time></trkpt><trkpt lat="49.01106236191908" lon="2.491553954002204"><ele>103.0</ele><time>2026-03-30T14:55:02Z</time></trkpt><trkpt lat="49.011298018388445" lon="2.491644546843704"><ele>103.0</ele><time>2026-03-30T14:55:03Z</time></trkpt><trkpt lat="49.01153570923819" lon="2.4917353394555257"><ele>103.5</ele><time>2026-03-30T14:55:04Z</time></trkpt><trkpt lat="49.01177178563151" lon="2.4918250459420395"><ele>104.0</ele><time>2026-03-30T14:55:05Z</time></trkpt><trkpt lat="49.01201094644256" lon="2.49191449108834"><ele>104.0</ele><time>2026-03-30T14:55:06Z</time></trkpt><trkpt lat="49.01225320127178" lon="2.4920069276425667"><ele>104.0</ele><time>2026-03-30T14:55:07Z</time></trkpt><trkpt lat="49.012496599031095" lon="2.492104327811648"><ele>104.0</ele><time>2026-03-30T14:55:08Z</time></trkpt><trkpt lat="49.012739164347344" lon="2.4921981209265263"><ele>104.0</ele><time>2026-03-30T14:55:09Z</time></trkpt><trkpt lat="49.012981769065924" lon="2.4922938968932917"><ele>104.0</ele><time>2026-03-30T14:55:10Z</time></trkpt><trkpt lat="49.013225888198875" lon="2.492388972067869"><ele>104.0</ele><time>2026-03-30T14:55:11Z</time></trkpt><trkpt lat="49.01346645377137" lon="2.492483458194507"><ele>104.0</ele><time>2026-03-30T14:55:12Z</time></trkpt><trkpt lat="49.01370543601953" lon="2.49257637276565"><ele>104.0</ele><time>2026-03-30T14:55:13Z</time></trkpt><trkpt lat="49.013946393737186" lon="2.4926691463505866"><ele>105.0</ele><time>2026-03-30T14:55:14Z</time></trkpt><trkpt lat="49.01418525140456" lon="2.4927608874572513"><ele>106.0</ele><time>2026-03-30T14:55:15Z</time></trkpt><trkpt lat="49.014425192321795" lon="2.4928502954887697"><ele>105.0</ele><time>2026-03-30T14:55:16Z</time></trkpt><trkpt lat="49.014659732570806" lon="2.4929364255509228"><ele>104.0</ele><time>2026-03-30T14:55:17Z</time></trkpt><trkpt lat="49.01489394549037" lon="2.4930233898410425"><ele>104.5</ele><time>2026-03-30T14:55:18Z</time></trkpt><trkpt lat="49.01512533438598" lon="2.4931124117608863"><ele>105.0</ele><time>2026-03-30T14:55:19Z</time></trkpt><trkpt lat="49.01535570631342" lon="2.4932024536500177"><ele>105.0</ele><time>2026-03-30T14:55:20Z</time></trkpt><trkpt lat="49.015582686909454" lon="2.49329273044646"><ele>105.0</ele><time>2026-03-30T14:55:21Z</time></trkpt><trkpt lat="49.0158055282932" lon="2.493389130670848"><ele>105.0</ele><time>2026-03-30T14:55:22Z</time></trkpt><trkpt lat="49.016028730147475" lon="2.493492850369479"><ele>105.0</ele><time>2026-03-30T14:55:23Z</time></trkpt><trkpt lat="49.01624941271999" lon="2.493603175955125"><ele>105.0</ele><time>2026-03-30T14:55:24Z</time></trkpt><trkpt lat="49.01646941748542" lon="2.493721826508466"><ele>105.0</ele><time>2026-03-30T14:55:25Z</time></trkpt><trkpt lat="49.01668601366868" lon="2.4938480414623"><ele>105.0</ele><time>2026-03-30T14:55:26Z</time></trkpt><trkpt lat="49.01690375812231" lon="2.4939817430486397"><ele>105.0</ele><time>2026-03-30T14:55:27Z</time></trkpt><trkpt lat="49.01712001186068" lon="2.4941205585348465"><ele>105.0</ele><time>2026-03-30T14:55:28Z</time></trkpt><trkpt lat="49.01733133659977" lon="2.4942593059821103"><ele>105.0</ele><time>2026-03-30T14:55:29Z</time></trkpt><trkpt lat="49.017541513548295" lon="2.4943964020837304"><ele>105.5</ele><time>2026-03-30T14:55:30Z</time></trkpt><trkpt lat="49.01775508066684" lon="2.494536387728004"><ele>106.0</ele><time>2026-03-30T14:55:31Z</time></trkpt><trkpt lat="49.017968527389755" lon="2.494674025925473"><ele>106.0</ele><time>2026-03-30T14:55:32Z</time></trkpt><trkpt lat="49.018183046239706" lon="2.494811015009949"><ele>106.0</ele><time>2026-03-30T14:55:33Z</time></trkpt><trkpt lat="49.01839793971117" lon="2.494945066459376"><ele>106.0</ele><time>2026-03-30T14:55:34Z</time></trkpt><trkpt lat="49.01861390918042" lon="2.495078610338319"><ele>106.0</ele><time>2026-03-30T14:55:35Z</time></trkpt><trkpt lat="49.01883588435656" lon="2.495211742199535"><ele>106.0</ele><time>2026-03-30T14:55:36Z</time></trkpt><trkpt lat="49.019058544342066" lon="2.495349512201069"><ele>106.0</ele><time>2026-03-30T14:55:37Z</time></trkpt><trkpt lat="49.01928338599581" lon="2.495496306474289"><ele>105.0</ele><time>2026-03-30T14:55:38Z</time></trkpt><trkpt lat="49.019509696703125" lon="2.4956441949068706"><ele>104.0</ele><time>2026-03-30T14:55:39Z</time></trkpt><trkpt lat="49.01973763245931" lon="2.495793665559892"><ele>104.0</ele><time>2026-03-30T14:55:40Z</time></trkpt><trkpt lat="49.01996897081726" lon="2.4959438104617973"><ele>104.0</ele><time>2026-03-30T14:55:41Z</time></trkpt><trkpt lat="49.020194411681594" lon="2.4960891714877382"><ele>104.0</ele><time>2026-03-30T14:55:42Z</time></trkpt><trkpt lat="49.02040213577686" lon="2.4962228710210757"><ele>104.0</ele><time>2026-03-30T14:55:43Z</time></trkpt><trkpt lat="49.020603843589846" lon="2.4963553101206095"><ele>104.0</ele><time>2026-03-30T14:55:44Z</time></trkpt><trkpt lat="49.02081112142748" lon="2.496489089813769"><ele>104.5</ele><time>2026-03-30T14:55:44.999Z</time></trkpt><trkpt lat="49.0210188454517" lon="2.49662187644916"><ele>105.0</ele><time>2026-03-30T14:55:45.999Z</time></trkpt><trkpt lat="49.02123114334481" lon="2.49675437643036"><ele>105.0</ele><time>2026-03-30T14:55:46.999Z</time></trkpt><trkpt lat="49.02144460878773" lon="2.49688748314231"><ele>105.0</ele><time>2026-03-30T14:55:47.999Z</time></trkpt><trkpt lat="49.0216590929053" lon="2.4970257444912787"><ele>105.0</ele><time>2026-03-30T14:55:48.999Z</time></trkpt><trkpt lat="49.02187376912413" lon="2.497167325407671"><ele>105.0</ele><time>2026-03-30T14:55:49.999Z</time></trkpt><trkpt lat="49.02209197958745" lon="2.497308136746259"><ele>105.0</ele><time>2026-03-30T14:55:50.999Z</time></trkpt><trkpt lat="49.02230484844236" lon="2.4974423763033724"><ele>105.0</ele><time>2026-03-30T14:55:51.999Z</time></trkpt><trkpt lat="49.02250128324235" lon="2.497567399369367"><ele>105.0</ele><time>2026-03-30T14:55:52.999Z</time></trkpt><trkpt lat="49.02270238191011" lon="2.4976969291278057"><ele>104.33333333333334</ele><time>2026-03-30T14:55:53.999Z</time></trkpt><trkpt lat="49.022906366853384" lon="2.497824231940351"><ele>103.66666666666667</ele><time>2026-03-30T14:55:54.999Z</time></trkpt><trkpt lat="49.02311236834087" lon="2.497948672604137"><ele>103.0</ele><time>2026-03-30T14:55:55.999Z</time></trkpt><trkpt lat="49.0233052826973" lon="2.498071211639201"><ele>102.33333333333334</ele><time>2026-03-30T14:55:56.999Z</time></trkpt><trkpt lat="49.023495475670195" lon="2.498199167599337"><ele>101.66666666666666</ele><time>2026-03-30T14:55:57.999Z</time></trkpt><trkpt lat="49.02368468085543" lon="2.498322721023764"><ele>101.0</ele><time>2026-03-30T14:55:58.999Z</time></trkpt><trkpt lat="49.02387684788241" lon="2.498454982893283"><ele>101.0</ele><time>2026-03-30T14:55:59.999Z</time></trkpt><trkpt lat="49.02406551032131" lon="2.498606134210788"><ele>101.0</ele><time>2026-03-30T14:56:00.999Z</time></trkpt><trkpt lat="49.02424981246163" lon="2.498758706768173"><ele>101.0</ele><time>2026-03-30T14:56:01.999Z</time></trkpt><trkpt lat="49.02442234740099" lon="2.4988992480158667"><ele>101.33333333333333</ele><time>2026-03-30T14:56:02.999Z</time></trkpt><trkpt lat="49.024593973104054" lon="2.499040289927417"><ele>101.66666666666666</ele><time>2026-03-30T14:56:03.999Z</time></trkpt><trkpt lat="49.024765713250645" lon="2.4991868517732816"><ele>102.0</ele><time>2026-03-30T14:56:04.999Z</time></trkpt><trkpt lat="49.02492801470294" lon="2.4993230981235137"><ele>102.0</ele><time>2026-03-30T14:56:05.999Z</time></trkpt><trkpt lat="49.025080935474094" lon="2.4994465275918754"><ele>102.0</ele><time>2026-03-30T14:56:06.999Z</time></trkpt><trkpt lat="49.02523377623422" lon="2.4995656015252905"><ele>102.0</ele><time>2026-03-30T14:56:07.999Z</time></trkpt><trkpt lat="49.02538709372248" lon="2.4996783969376426"><ele>102.0</ele><time>2026-03-30T14:56:08.999Z</time></trkpt><trkpt lat="49.025531810447404" lon="2.499766979164955"><ele>102.0</ele><time>2026-03-30T14:56:09.999Z</time></trkpt><trkpt lat="49.02565747355217" lon="2.499823557943218"><ele>102.0</ele><time>2026-03-30T14:56:10.999Z</time></trkpt><trkpt lat="49.02576480445088" lon="2.4998578952420827"><ele>102.0</ele><time>2026-03-30T14:56:11.999Z</time></trkpt><trkpt lat="49.025864911536125" lon="2.49988492089115"><ele>102.0</ele><time>2026-03-30T14:56:12.999Z</time></trkpt><trkpt lat="49.02596748071153" lon="2.4999117878625405"><ele>102.0</ele><time>2026-03-30T14:56:13.999Z</time></trkpt><trkpt lat="49.02608962624263" lon="2.4999369514175154"><ele>102.0</ele><time>2026-03-30T14:56:14.999Z</time></trkpt><trkpt lat="49.026225825087394" lon="2.4999551890917777"><ele>102.0</ele><time>2026-03-30T14:56:15.999Z</time></trkpt><trkpt lat="49.02633474802645" lon="2.499956351811564"><ele>102.0</ele><time>2026-03-30T14:56:16.999Z</time></trkpt><trkpt lat="49.02643227482442" lon="2.499949163359095"><ele>102.0</ele><time>2026-03-30T14:56:17.999Z</time></trkpt><trkpt lat="49.02655245198601" lon="2.499940036248153"><ele>102.0</ele><time>2026-03-30T14:56:18.999Z</time></trkpt><trkpt lat="49.026678228588764" lon="2.4999161839189816"><ele>102.0</ele><time>2026-03-30T14:56:19.999Z</time></trkpt><trkpt lat="49.02680034964864" lon="2.499888587503552"><ele>101.25</ele><time>2026-03-30T14:56:20.999Z</time></trkpt><trkpt lat="49.02692579035527" lon="2.4998485960599934"><ele>100.5</ele><time>2026-03-30T14:56:21.999Z</time></trkpt><trkpt lat="49.0270492543482" lon="2.4998114877969506"><ele>99.75</ele><time>2026-03-30T14:56:22.999Z</time></trkpt><trkpt lat="49.02715828912142" lon="2.4997682646993327"><ele>99.0</ele><time>2026-03-30T14:56:23.999Z</time></trkpt><trkpt lat="49.027259856356395" lon="2.4997365000969114"><ele>99.0</ele><time>2026-03-30T14:56:24.999Z</time></trkpt><trkpt lat="49.027352163187835" lon="2.4997104496028633"><ele>99.0</ele><time>2026-03-30T14:56:25.999Z</time></trkpt><trkpt lat="49.0274425566409" lon="2.4996849876861886"><ele>99.0</ele><time>2026-03-30T14:56:26.999Z</time></trkpt><trkpt lat="49.02753930085248" lon="2.4996663023967565"><ele>99.0</ele><time>2026-03-30T14:56:27.999Z</time></trkpt><trkpt lat="49.02763540947063" lon="2.4996562312715533"><ele>99.0</ele><time>2026-03-30T14:56:28.999Z</time></trkpt><trkpt lat="49.02773727375975" lon="2.4996455589933446"><ele>98.75</ele><time>2026-03-30T14:56:29.999Z</time></trkpt><trkpt lat="49.027844517769985" lon="2.499643149373365"><ele>98.5</ele><time>2026-03-30T14:56:30.999Z</time></trkpt><trkpt lat="49.02796168645544" lon="2.499662790977729"><ele>98.25</ele><time>2026-03-30T14:56:31.999Z</time></trkpt><trkpt lat="49.02807849830548" lon="2.499678521119061"><ele>98.0</ele><time>2026-03-30T14:56:32.999Z</time></trkpt><trkpt lat="49.02819312333563" lon="2.4996984105012516"><ele>98.0</ele><time>2026-03-30T14:56:33.999Z</time></trkpt><trkpt lat="49.02830015149235" lon="2.4997267275920234"><ele>98.0</ele><time>2026-03-30T14:56:34.999Z</time></trkpt><trkpt lat="49.028393778772546" lon="2.499750677519422"><ele>98.0</ele><time>2026-03-30T14:56:35.999Z</time></trkpt><trkpt lat="49.02847971329827" lon="2.499773272639269"><ele>98.0</ele><time>2026-03-30T14:56:36.999Z</time></trkpt><trkpt lat="49.02854835407399" lon="2.4997927218607883"><ele>98.0</ele><time>2026-03-30T14:56:37.999Z</time></trkpt><trkpt lat="49.02863973854075" lon="2.4998315360916794"><ele>98.0</ele><time>2026-03-30T14:56:39.999Z</time></trkpt><trkpt lat="49.028707647172894" lon="2.499888546445585"><ele>98.0</ele><time>2026-03-30T14:56:41.998Z</time></trkpt><trkpt lat="49.028796147230516" lon="2.5000287668418646"><ele>98.0</ele><time>2026-03-30T14:56:43.998Z</time></trkpt><trkpt lat="49.0288345115374" lon="2.500162713789576"><ele>98.0</ele><time>2026-03-30T14:56:44.998Z</time></trkpt><trkpt lat="49.028883214460514" lon="2.5003047361349577"><ele>98.0</ele><time>2026-03-30T14:56:45.998Z</time></trkpt><trkpt lat="49.02896651287136" lon="2.500456439488151"><ele>98.0</ele><time>2026-03-30T14:56:46.998Z</time></trkpt><trkpt lat="49.02907001789193" lon="2.50057719899806"><ele>98.0</ele><time>2026-03-30T14:56:47.998Z</time></trkpt><trkpt lat="49.02918882418207" lon="2.500664037451748"><ele>98.0</ele><time>2026-03-30T14:56:48.998Z</time></trkpt><trkpt lat="49.02931578632106" lon="2.5007106419969296"><ele>98.0</ele><time>2026-03-30T14:56:49.998Z</time></trkpt><trkpt lat="49.02945030794169" lon="2.500722451291551"><ele>98.0</ele><time>2026-03-30T14:56:50.998Z</time></trkpt><trkpt lat="49.02957723179352" lon="2.5006943042766805"><ele>98.0</ele><time>2026-03-30T14:56:51.998Z</time></trkpt><trkpt lat="49.02969892048551" lon="2.5006288674842168"><ele>98.0</ele><time>2026-03-30T14:56:52.998Z</time></trkpt><trkpt lat="49.02980520911428" lon="2.5005355289115347"><ele>98.0</ele><time>2026-03-30T14:56:53.998Z</time></trkpt><trkpt lat="49.029900417439066" lon="2.5004437663948265"><ele>98.25</ele><time>2026-03-30T14:56:54.998Z</time></trkpt><trkpt lat="49.0300193262776" lon="2.5003781992873457"><ele>98.5</ele><time>2026-03-30T14:56:55.998Z</time></trkpt><trkpt lat="49.030141372319925" lon="2.5003757330506704"><ele>98.75</ele><time>2026-03-30T14:56:56.998Z</time></trkpt><trkpt lat="49.03026323108793" lon="2.5004114945490254"><ele>99.0</ele><time>2026-03-30T14:56:57.998Z</time></trkpt><trkpt lat="49.03038090238719" lon="2.5004890899416705"><ele>99.0</ele><time>2026-03-30T14:56:58.998Z</time></trkpt><trkpt lat="49.03048129097146" lon="2.5006103999291565"><ele>99.0</ele><time>2026-03-30T14:56:59.998Z</time></trkpt><trkpt lat="49.03057800208872" lon="2.5007480860673788"><ele>99.0</ele><time>2026-03-30T14:57:00.998Z</time></trkpt><trkpt lat="49.030684061016736" lon="2.5009228447349705"><ele>99.0</ele><time>2026-03-30T14:57:01.998Z</time></trkpt><trkpt lat="49.0307978729553" lon="2.501126481489722"><ele>99.66666666666666</ele><time>2026-03-30T14:57:02.998Z</time></trkpt><trkpt lat="49.03091871063558" lon="2.501364421144772"><ele>100.33333333333333</ele><time>2026-03-30T14:57:03.998Z</time></trkpt><trkpt lat="49.031028943407705" lon="2.501615639303518"><ele>101.0</ele><time>2026-03-30T14:57:04.998Z</time></trkpt><trkpt lat="49.03112887322634" lon="2.5018778469697898"><ele>101.33333333333333</ele><time>2026-03-30T14:57:05.998Z</time></trkpt><trkpt lat="49.031227743631995" lon="2.5021520037838147"><ele>101.66666666666666</ele><time>2026-03-30T14:57:06.998Z</time></trkpt><trkpt lat="49.031320831916034" lon="2.502412177211229"><ele>102.0</ele><time>2026-03-30T14:57:08Z</time></trkpt><trkpt lat="49.03140903489409" lon="2.502643285228137"><ele>102.0</ele><time>2026-03-30T14:57:09Z</time></trkpt><trkpt lat="49.03150314196231" lon="2.5028496651070693"><ele>102.0</ele><time>2026-03-30T14:57:10Z</time></trkpt><trkpt lat="49.03160589313436" lon="2.503037443666406"><ele>102.0</ele><time>2026-03-30T14:57:11Z</time></trkpt><trkpt lat="49.03171978626395" lon="2.5032160284821114"><ele>102.33333333333334</ele><time>2026-03-30T14:57:12Z</time></trkpt><trkpt lat="49.03184568443774" lon="2.503386850314538"><ele>102.66666666666667</ele><time>2026-03-30T14:57:13Z</time></trkpt><trkpt lat="49.03197771013931" lon="2.5035486251004073"><ele>103.0</ele><time>2026-03-30T14:57:14Z</time></trkpt><trkpt lat="49.032116949843015" lon="2.5036914112618502"><ele>103.0</ele><time>2026-03-30T14:57:15Z</time></trkpt><trkpt lat="49.032265484283485" lon="2.5038187669797467"><ele>103.0</ele><time>2026-03-30T14:57:16Z</time></trkpt><trkpt lat="49.032421847071916" lon="2.5039383317021646"><ele>103.0</ele><time>2026-03-30T14:57:17Z</time></trkpt><trkpt lat="49.03258242600212" lon="2.5040413673562076"><ele>102.66666666666667</ele><time>2026-03-30T14:57:18Z</time></trkpt><trkpt lat="49.032746268777366" lon="2.5041381400171017"><ele>102.33333333333334</ele><time>2026-03-30T14:57:19Z</time></trkpt><trkpt lat="49.032905339862204" lon="2.504243217670321"><ele>102.0</ele><time>2026-03-30T14:57:20Z</time></trkpt><trkpt lat="49.033067860746314" lon="2.5043558220246647"><ele>102.0</ele><time>2026-03-30T14:57:21Z</time></trkpt><trkpt lat="49.03323926077605" lon="2.5044723956293464"><ele>102.0</ele><time>2026-03-30T14:57:22Z</time></trkpt><trkpt lat="49.033418800753346" lon="2.5045912103290644"><ele>102.0</ele><time>2026-03-30T14:57:23Z</time></trkpt><trkpt lat="49.03360183552503" lon="2.504709186169047"><ele>101.66666666666666</ele><time>2026-03-30T14:57:24Z</time></trkpt><trkpt lat="49.033789216253595" lon="2.5048279087538283"><ele>101.33333333333333</ele><time>2026-03-30T14:57:25Z</time></trkpt><trkpt lat="49.033979011853695" lon="2.5049498242557777"><ele>101.0</ele><time>2026-03-30T14:57:26Z</time></trkpt><trkpt lat="49.03416477992329" lon="2.5050706721600164"><ele>100.33333333333333</ele><time>2026-03-30T14:57:27Z</time></trkpt><trkpt lat="49.034357100213995" lon="2.5051950808362435"><ele>99.66666666666666</ele><time>2026-03-30T14:57:28Z</time></trkpt><trkpt lat="49.03454786799888" lon="2.5053193195984913"><ele>99.0</ele><time>2026-03-30T14:57:29Z</time></trkpt><trkpt lat="49.034733929123114" lon="2.505453948753661"><ele>98.66666666666666</ele><time>2026-03-30T14:57:30Z</time></trkpt><trkpt lat="49.034921609616326" lon="2.505588533585864"><ele>98.33333333333333</ele><time>2026-03-30T14:57:31Z</time></trkpt><trkpt lat="49.0351134266426" lon="2.5057275389785043"><ele>98.0</ele><time>2026-03-30T14:57:32Z</time></trkpt><trkpt lat="49.0353073409533" lon="2.505866814927792"><ele>96.66666666666666</ele><time>2026-03-30T14:57:33Z</time></trkpt><trkpt lat="49.03550594622219" lon="2.5060139941338297"><ele>95.33333333333333</ele><time>2026-03-30T14:57:34Z</time></trkpt><trkpt lat="49.03570878301357" lon="2.5061654421311212"><ele>94.0</ele><time>2026-03-30T14:57:35Z</time></trkpt><trkpt lat="49.03591137488886" lon="2.506326494052118"><ele>93.0</ele><time>2026-03-30T14:57:36Z</time></trkpt><trkpt lat="49.03611520032606" lon="2.506499322924917"><ele>92.0</ele><time>2026-03-30T14:57:37Z</time></trkpt><trkpt lat="49.03631961578141" lon="2.506677935203719"><ele>92.0</ele><time>2026-03-30T14:57:38Z</time></trkpt><trkpt lat="49.03651032111588" lon="2.50684230851403"><ele>92.0</ele><time>2026-03-30T14:57:39Z</time></trkpt><trkpt lat="49.036694611084734" lon="2.507000722157519"><ele>92.0</ele><time>2026-03-30T14:57:40Z</time></trkpt><trkpt lat="49.03688440559546" lon="2.507160037058494"><ele>91.33333333333334</ele><time>2026-03-30T14:57:41Z</time></trkpt><trkpt lat="49.0370753375472" lon="2.5073221855529613"><ele>90.66666666666667</ele><time>2026-03-30T14:57:42Z</time></trkpt><trkpt lat="49.03726111197767" lon="2.507481356016161"><ele>90.0</ele><time>2026-03-30T14:57:43Z</time></trkpt><trkpt lat="49.037438569315974" lon="2.5076359274459143"><ele>88.33333333333333</ele><time>2026-03-30T14:57:44Z</time></trkpt><trkpt lat="49.03762026074684" lon="2.5077919881205903"><ele>86.66666666666666</ele><time>2026-03-30T14:57:45Z</time></trkpt><trkpt lat="49.03780364274308" lon="2.5079544427093245"><ele>85.0</ele><time>2026-03-30T14:57:46Z</time></trkpt><trkpt lat="49.03799691383389" lon="2.508124259649459"><ele>85.0</ele><time>2026-03-30T14:57:47Z</time></trkpt><trkpt lat="49.038198012249055" lon="2.5083037593054343"><ele>85.0</ele><time>2026-03-30T14:57:48Z</time></trkpt><trkpt lat="49.03840383360361" lon="2.508478527630547"><ele>81.0</ele><time>2026-03-30T14:57:49Z</time></trkpt><trkpt lat="49.0386081145054" lon="2.508650560473968"><ele>77.0</ele><time>2026-03-30T14:57:49.999Z</time></trkpt><trkpt lat="49.03880839630617" lon="2.5088181391953515"><ele>76.5</ele><time>2026-03-30T14:57:50.999Z</time></trkpt><trkpt lat="49.03900685934583" lon="2.5089844026026227"><ele>76.0</ele><time>2026-03-30T14:57:51.999Z</time></trkpt><trkpt lat="49.039204825663866" lon="2.50914817456654"><ele>77.0</ele><time>2026-03-30T14:57:52.999Z</time></trkpt><trkpt lat="49.039405974582" lon="2.50930799501824"><ele>78.0</ele><time>2026-03-30T14:57:53.999Z</time></trkpt><trkpt lat="49.03960599222618" lon="2.5094666048997434"><ele>77.33333333333333</ele><time>2026-03-30T14:57:54.999Z</time></trkpt><trkpt lat="49.039808503584275" lon="2.5096087313920163"><ele>76.66666666666666</ele><time>2026-03-30T14:57:55.999Z</time></trkpt><trkpt lat="49.04000874532868" lon="2.5097382771795034"><ele>76.0</ele><time>2026-03-30T14:57:56.999Z</time></trkpt><trkpt lat="49.040208097688335" lon="2.5098641880602783"><ele>79.0</ele><time>2026-03-30T14:57:57.999Z</time></trkpt><trkpt lat="49.04041778195103" lon="2.5099904647041162"><ele>82.0</ele><time>2026-03-30T14:57:58.999Z</time></trkpt><trkpt lat="49.04060597829743" lon="2.5100843842238723"><ele>85.0</ele><time>2026-03-30T14:57:59.999Z</time></trkpt><trkpt lat="49.04080289324423" lon="2.5101768587273376"><ele>86.33333333333333</ele><time>2026-03-30T14:58:00.999Z</time></trkpt><trkpt lat="49.04100498553135" lon="2.5102620022567836"><ele>87.66666666666667</ele><time>2026-03-30T14:58:01.999Z</time></trkpt><trkpt lat="49.04121455529886" lon="2.510343577103634"><ele>89.0</ele><time>2026-03-30T14:58:02.999Z</time></trkpt><trkpt lat="49.04141844110607" lon="2.5104260683527886"><ele>89.66666666666667</ele><time>2026-03-30T14:58:03.999Z</time></trkpt><trkpt lat="49.04161663872047" lon="2.5105067296626813"><ele>90.33333333333333</ele><time>2026-03-30T14:58:04.999Z</time></trkpt><trkpt lat="49.04181678538731" lon="2.5105688284549816"><ele>91.0</ele><time>2026-03-30T14:58:05.999Z</time></trkpt><trkpt lat="49.0420189041985" lon="2.510618966644404"><ele>92.33333333333333</ele><time>2026-03-30T14:58:06.999Z</time></trkpt><trkpt lat="49.04221428602118" lon="2.51066075824206"><ele>93.66666666666667</ele><time>2026-03-30T14:58:07.999Z</time></trkpt><trkpt lat="49.04239501481771" lon="2.510695103502296"><ele>95.0</ele><time>2026-03-30T14:58:08.999Z</time></trkpt><trkpt lat="49.04255978368505" lon="2.5107255423647503"><ele>95.5</ele><time>2026-03-30T14:58:09.999Z</time></trkpt><trkpt lat="49.042715514899655" lon="2.510759144897857"><ele>96.0</ele><time>2026-03-30T14:58:10.999Z</time></trkpt><trkpt lat="49.042853348352644" lon="2.510785211223775"><ele>96.5</ele><time>2026-03-30T14:58:11.999Z</time></trkpt><trkpt lat="49.0429845097255" lon="2.510810702486193"><ele>97.0</ele><time>2026-03-30T14:58:12.999Z</time></trkpt><trkpt lat="49.043108511015205" lon="2.510836309613951"><ele>97.0</ele><time>2026-03-30T14:58:13.999Z</time></trkpt><trkpt lat="49.04321286698041" lon="2.510837663668008"><ele>97.0</ele><time>2026-03-30T14:58:14.999Z</time></trkpt><trkpt lat="49.04330220898944" lon="2.5108638557470204"><ele>97.0</ele><time>2026-03-30T14:58:15.999Z</time></trkpt><trkpt lat="49.043376304786335" lon="2.510884182399573"><ele>97.0</ele><time>2026-03-30T14:58:16.999Z</time></trkpt><trkpt lat="49.04344196949763" lon="2.5108951856002744"><ele>97.0</ele><time>2026-03-30T14:58:17.999Z</time></trkpt><trkpt lat="49.04356059436667" lon="2.510917202056431"><ele>97.66666666666667</ele><time>2026-03-30T14:58:19.999Z</time></trkpt><trkpt lat="49.04366698904772" lon="2.510923866346901"><ele>98.33333333333334</ele><time>2026-03-30T14:58:21.999Z</time></trkpt><trkpt lat="49.04373512438146" lon="2.5109366969555773"><ele>99.0</ele><time>2026-03-30T14:58:22.999Z</time></trkpt><trkpt lat="49.04379896392331" lon="2.5109565615063105"><ele>99.66666666666666</ele><time>2026-03-30T14:58:23.999Z</time></trkpt><trkpt lat="49.043872251469395" lon="2.5109752557205476"><ele>100.33333333333333</ele><time>2026-03-30T14:58:24.999Z</time></trkpt><trkpt lat="49.043946925505246" lon="2.5109921990812576"><ele>101.0</ele><time>2026-03-30T14:58:25.999Z</time></trkpt><trkpt lat="49.044011296366484" lon="2.5110064861127945"><ele>100.99999999999999</ele><time>2026-03-30T14:58:26.999Z</time></trkpt><trkpt lat="49.044073939795126" lon="2.511023492175145"><ele>101.0</ele><time>2026-03-30T14:58:27.999Z</time></trkpt><trkpt lat="49.04414933364758" lon="2.5110399037972666"><ele>101.0</ele><time>2026-03-30T14:58:28.999Z</time></trkpt><trkpt lat="49.04423952344927" lon="2.511057876625504"><ele>101.0</ele><time>2026-03-30T14:58:29.999Z</time></trkpt><trkpt lat="49.04433906191421" lon="2.511082529255805"><ele>100.99999999999999</ele><time>2026-03-30T14:58:30.999Z</time></trkpt><trkpt lat="49.04444049396222" lon="2.511107893697474"><ele>101.0</ele><time>2026-03-30T14:58:31.999Z</time></trkpt><trkpt lat="49.044541165885555" lon="2.511139388097012"><ele>101.6</ele><time>2026-03-30T14:58:32.999Z</time></trkpt><trkpt lat="49.04464738989146" lon="2.511164850516357"><ele>102.19999999999999</ele><time>2026-03-30T14:58:33.999Z</time></trkpt><trkpt lat="49.04473859670958" lon="2.5111888560978146"><ele>102.80000000000001</ele><time>2026-03-30T14:58:34.999Z</time></trkpt><trkpt lat="49.04481858519086" lon="2.5111985962396837"><ele>103.4</ele><time>2026-03-30T14:58:35.999Z</time></trkpt><trkpt lat="49.04491718486345" lon="2.511217783308416"><ele>104.0</ele><time>2026-03-30T14:58:36.999Z</time></trkpt><trkpt lat="49.0450098288239" lon="2.511236433956721"><ele>103.80000000000001</ele><time>2026-03-30T14:58:37.999Z</time></trkpt><trkpt lat="49.04508341724234" lon="2.5112550414315207"><ele>103.60000000000001</ele><time>2026-03-30T14:58:38.999Z</time></trkpt><trkpt lat="49.04518251669417" lon="2.5112879118036795"><ele>103.4</ele><time>2026-03-30T14:58:40.999Z</time></trkpt><trkpt lat="49.04527882921925" lon="2.5113199886770854"><ele>103.2</ele><time>2026-03-30T14:58:42.999Z</time></trkpt><trkpt lat="49.045373684262486" lon="2.5113536040456457"><ele>103.0</ele><time>2026-03-30T14:58:44.998Z</time></trkpt><trkpt lat="49.04545142592275" lon="2.511383840675916"><ele>103.00000000000001</ele><time>2026-03-30T14:58:46.998Z</time></trkpt><trkpt lat="49.045517370259134" lon="2.5114052512728557"><ele>103.0</ele><time>2026-03-30T14:58:50.998Z</time></trkpt><trkpt lat="49.045591507919426" lon="2.5114661233745235"><ele>103.0</ele><time>2026-03-30T14:58:57.998Z</time></trkpt><trkpt lat="49.04567500468309" lon="2.5115951841994684"><ele>103.0</ele><time>2026-03-30T14:58:59.998Z</time></trkpt><trkpt lat="49.04572169502831" lon="2.511678859074512"><ele>103.00000000000001</ele><time>2026-03-30T14:59:00.998Z</time></trkpt><trkpt lat="49.045786981674105" lon="2.511740034901799"><ele>103.0</ele><time>2026-03-30T14:59:01.998Z</time></trkpt><trkpt lat="49.04585524057056" lon="2.511769500145165"><ele>103.33333333333334</ele><time>2026-03-30T14:59:02.998Z</time></trkpt><trkpt lat="49.04592200621719" lon="2.5117676291491398"><ele>103.66666666666667</ele><time>2026-03-30T14:59:03.998Z</time></trkpt><trkpt lat="49.04598615547948" lon="2.5117125438198706"><ele>104.0</ele><time>2026-03-30T14:59:04.998Z</time></trkpt><trkpt lat="49.046026986686485" lon="2.511622827323108"><ele>104.33333333333334</ele><time>2026-03-30T14:59:05.998Z</time></trkpt><trkpt lat="49.04605483116095" lon="2.5115134717133305"><ele>104.66666666666667</ele><time>2026-03-30T14:59:06.998Z</time></trkpt><trkpt lat="49.04604987668995" lon="2.511392336205026"><ele>105.0</ele><time>2026-03-30T14:59:07.998Z</time></trkpt><trkpt lat="49.046018971997455" lon="2.5112771911856417"><ele>105.4</ele><time>2026-03-30T14:59:08.998Z</time></trkpt><trkpt lat="49.045970059920904" lon="2.5111726215160513"><ele>105.8</ele><time>2026-03-30T14:59:09.998Z</time></trkpt><trkpt lat="49.04591276619443" lon="2.5110784675077475"><ele>106.19999999999999</ele><time>2026-03-30T14:59:10.998Z</time></trkpt><trkpt lat="49.045892516894135" lon="2.5109122361736955"><ele>106.6</ele><time>2026-03-30T14:59:11.998Z</time></trkpt><trkpt lat="49.045853408746034" lon="2.510780759623294"><ele>107.0</ele><time>2026-03-30T14:59:12.998Z</time></trkpt><trkpt lat="49.045816006524724" lon="2.510650852019545"><ele>107.16666666666666</ele><time>2026-03-30T14:59:14Z</time></trkpt><trkpt lat="49.045777138670054" lon="2.510523388232662"><ele>107.33333333333333</ele><time>2026-03-30T14:59:15Z</time></trkpt><trkpt lat="49.04574126852246" lon="2.510396709053991"><ele>107.5</ele><time>2026-03-30T14:59:16Z</time></trkpt><trkpt lat="49.04571437696146" lon="2.5102852733688215"><ele>107.66666666666666</ele><time>2026-03-30T14:59:17Z</time></trkpt><trkpt lat="49.045685610503995" lon="2.5101877972917226"><ele>107.83333333333333</ele><time>2026-03-30T14:59:18Z</time></trkpt><trkpt lat="49.045661094621195" lon="2.510096342137888"><ele>108.0</ele><time>2026-03-30T14:59:19Z</time></trkpt><trkpt lat="49.04566653017446" lon="2.5099093049570724"><ele>108.0</ele><time>2026-03-30T14:59:21Z</time></trkpt><trkpt lat="49.04571925550597" lon="2.5097703194956624"><ele>108.00000000000001</ele><time>2026-03-30T14:59:23Z</time></trkpt><trkpt lat="49.04576115890199" lon="2.5096008798861194"><ele>108.00000000000001</ele><time>2026-03-30T14:59:25Z</time></trkpt><trkpt lat="49.04580603069908" lon="2.509529675478191"><ele>108.0</ele><time>2026-03-30T14:59:26Z</time></trkpt><trkpt lat="49.04590172051084" lon="2.5093876888692384"><ele>108.0</ele><time>2026-03-30T14:59:28Z</time></trkpt><trkpt lat="49.045970037202025" lon="2.5092920966671057"><ele>108.33333333333333</ele><time>2026-03-30T14:59:29Z</time></trkpt><trkpt lat="49.04603773736961" lon="2.5091902828679564"><ele>108.66666666666666</ele><time>2026-03-30T14:59:30Z</time></trkpt><trkpt lat="49.04611269757661" lon="2.509100770545163"><ele>109.0</ele><time>2026-03-30T14:59:31Z</time></trkpt><trkpt lat="49.046168558154605" lon="2.5090143916877703"><ele>109.33333333333333</ele><time>2026-03-30T14:59:32Z</time></trkpt><trkpt lat="49.04622969144486" lon="2.5089316828297976"><ele>109.66666666666666</ele><time>2026-03-30T14:59:33Z</time></trkpt><trkpt lat="49.04629076241542" lon="2.508838089808743"><ele>110.0</ele><time>2026-03-30T14:59:34Z</time></trkpt><trkpt lat="49.04636489664479" lon="2.5087527119410793"><ele>109.99999999999999</ele><time>2026-03-30T14:59:35Z</time></trkpt><trkpt lat="49.04642753767011" lon="2.5086626715800984"><ele>110.0</ele><time>2026-03-30T14:59:36Z</time></trkpt><trkpt lat="49.04648256267688" lon="2.5085803288590225"><ele>110.0</ele><time>2026-03-30T14:59:36.999Z</time></trkpt><trkpt lat="49.04653824893572" lon="2.5085072282414047"><ele>110.0</ele><time>2026-03-30T14:59:37.999Z</time></trkpt><trkpt lat="49.046587343998084" lon="2.508425937958713"><ele>109.99999999999999</ele><time>2026-03-30T14:59:38.999Z</time></trkpt><trkpt lat="49.04665161601744" lon="2.508359241126824"><ele>110.0</ele><time>2026-03-30T14:59:39.999Z</time></trkpt><trkpt lat="49.046699983275076" lon="2.5082829115616776"><ele>109.99999999999999</ele><time>2026-03-30T14:59:40.999Z</time></trkpt><trkpt lat="49.04675115022747" lon="2.50821543088829"><ele>110.0</ele><time>2026-03-30T14:59:41.999Z</time></trkpt><trkpt lat="49.0468005790037" lon="2.5081480736954065"><ele>110.0</ele><time>2026-03-30T14:59:42.999Z</time></trkpt><trkpt lat="49.0468738126563" lon="2.5080324006670693"><ele>110.0</ele><time>2026-03-30T14:59:44.999Z</time></trkpt><trkpt lat="49.046930454394435" lon="2.5079471104493423"><ele>109.99999999999999</ele><time>2026-03-30T14:59:46.999Z</time></trkpt><trkpt lat="49.04699451025987" lon="2.5078597365375614"><ele>110.0</ele><time>2026-03-30T14:59:48.999Z</time></trkpt><trkpt lat="49.04707625914965" lon="2.5077515890266135"><ele>110.4</ele><time>2026-03-30T14:59:50.999Z</time></trkpt><trkpt lat="49.04716898000155" lon="2.5076472605490765"><ele>110.8</ele><time>2026-03-30T14:59:52.999Z</time></trkpt><trkpt lat="49.04724110937762" lon="2.5075467628246266"><ele>111.19999999999999</ele><time>2026-03-30T14:59:54.999Z</time></trkpt><trkpt lat="49.047296391022314" lon="2.5074402543038685"><ele>111.6</ele><time>2026-03-30T14:59:56.999Z</time></trkpt><trkpt lat="49.047349138430505" lon="2.5073671870981866"><ele>112.0</ele><time>2026-03-30T14:59:58.999Z</time></trkpt><trkpt lat="49.047418998513564" lon="2.507298910269619"><ele>112.0</ele><time>2026-03-30T15:00:42.998Z</time></trkpt><trkpt lat="49.047487289134374" lon="2.5071760019243716"><ele>111.99999999999999</ele><time>2026-03-30T15:00:44.998Z</time></trkpt><trkpt lat="49.04757734699009" lon="2.507058372320691"><ele>111.99999999999999</ele><time>2026-03-30T15:00:46.998Z</time></trkpt><trkpt lat="49.047655792980834" lon="2.5069447187553457"><ele>112.0</ele><time>2026-03-30T15:00:48.998Z</time></trkpt><trkpt lat="49.04773594473417" lon="2.506832012639112"><ele>112.0</ele><time>2026-03-30T15:00:50.998Z</time></trkpt><trkpt lat="49.04778256121261" lon="2.5067628951473386"><ele>111.8</ele><time>2026-03-30T15:00:51.998Z</time></trkpt><trkpt lat="49.047879050375485" lon="2.5066615362657627"><ele>111.6</ele><time>2026-03-30T15:00:53.998Z</time></trkpt><trkpt lat="49.04793693930072" lon="2.50655939573163"><ele>111.39999999999999</ele><time>2026-03-30T15:00:55.998Z</time></trkpt><trkpt lat="49.04801402846331" lon="2.50646236081718"><ele>111.19999999999999</ele><time>2026-03-30T15:01:11.997Z</time></trkpt><trkpt lat="49.04808341678878" lon="2.5063706745378123"><ele>111.0</ele><time>2026-03-30T15:01:13.997Z</time></trkpt><trkpt lat="49.04818627299968" lon="2.5062520382261573"><ele>111.16666666666667</ele><time>2026-03-30T15:01:15.997Z</time></trkpt><trkpt lat="49.04827652347139" lon="2.506113728133021"><ele>111.33333333333334</ele><time>2026-03-30T15:01:17.997Z</time></trkpt><trkpt lat="49.04832555353626" lon="2.5060289430816787"><ele>111.5</ele><time>2026-03-30T15:01:18.997Z</time></trkpt><trkpt lat="49.04837818480246" lon="2.505945549395602"><ele>111.66666666666667</ele><time>2026-03-30T15:01:19.999Z</time></trkpt><trkpt lat="49.04842829945925" lon="2.505862488440634"><ele>111.83333333333334</ele><time>2026-03-30T15:01:20.999Z</time></trkpt><trkpt lat="49.048476051045256" lon="2.5057877335443433"><ele>112.0</ele><time>2026-03-30T15:01:21.999Z</time></trkpt><trkpt lat="49.04852230928253" lon="2.505710364768277"><ele>112.0</ele><time>2026-03-30T15:01:22.999Z</time></trkpt><trkpt lat="49.048576910288624" lon="2.5056226866173597"><ele>112.0</ele><time>2026-03-30T15:01:23.999Z</time></trkpt><trkpt lat="49.0486260406932" lon="2.5055377546217565"><ele>112.0</ele><time>2026-03-30T15:01:24.999Z</time></trkpt><trkpt lat="49.048670806358786" lon="2.5054592549939882"><ele>112.0</ele><time>2026-03-30T15:01:25.999Z</time></trkpt><trkpt lat="49.04871482102834" lon="2.5053825585143192"><ele>112.0</ele><time>2026-03-30T15:01:27Z</time></trkpt><trkpt lat="49.04876244671879" lon="2.5052984967106733"><ele>112.0</ele><time>2026-03-30T15:01:28Z</time></trkpt><trkpt lat="49.04881098252331" lon="2.505210691020943"><ele>112.0</ele><time>2026-03-30T15:01:29Z</time></trkpt><trkpt lat="49.0488613650051" lon="2.505123908252418"><ele>111.83333333333334</ele><time>2026-03-30T15:01:30Z</time></trkpt><trkpt lat="49.0489118397734" lon="2.5050381172945393"><ele>111.66666666666667</ele><time>2026-03-30T15:01:31Z</time></trkpt><trkpt lat="49.048964754987125" lon="2.504950574943091"><ele>111.5</ele><time>2026-03-30T15:01:32Z</time></trkpt><trkpt lat="49.04901604487572" lon="2.5048647098169305"><ele>111.33333333333334</ele><time>2026-03-30T15:01:33Z</time></trkpt><trkpt lat="49.04907117639564" lon="2.504775168724688"><ele>111.16666666666667</ele><time>2026-03-30T15:01:34Z</time></trkpt><trkpt lat="49.04913354263848" lon="2.504667603884142"><ele>111.0</ele><time>2026-03-30T15:01:35Z</time></trkpt><trkpt lat="49.04919902847563" lon="2.504557485672288"><ele>109.8</ele><time>2026-03-30T15:01:36Z</time></trkpt><trkpt lat="49.04926450415345" lon="2.5044506533693114"><ele>108.6</ele><time>2026-03-30T15:01:37Z</time></trkpt><trkpt lat="49.049330752909675" lon="2.5043457474629705"><ele>107.4</ele><time>2026-03-30T15:01:38Z</time></trkpt><trkpt lat="49.04939318616038" lon="2.504238790876272"><ele>106.2</ele><time>2026-03-30T15:01:39Z</time></trkpt><trkpt lat="49.04945171381798" lon="2.504126708957481"><ele>105.0</ele><time>2026-03-30T15:01:40Z</time></trkpt><trkpt lat="49.04950960511462" lon="2.504020063331314"><ele>105.0</ele><time>2026-03-30T15:01:41Z</time></trkpt><trkpt lat="49.049562602864555" lon="2.503926344860715"><ele>105.0</ele><time>2026-03-30T15:01:42Z</time></trkpt><trkpt lat="49.04961387442786" lon="2.503846021226214"><ele>105.0</ele><time>2026-03-30T15:01:43Z</time></trkpt><trkpt lat="49.04966158660354" lon="2.5037634150318167"><ele>105.0</ele><time>2026-03-30T15:01:44Z</time></trkpt><trkpt lat="49.04970958451619" lon="2.5036742570583264"><ele>105.0</ele><time>2026-03-30T15:01:45Z</time></trkpt><trkpt lat="49.049761317221844" lon="2.5035905993185366"><ele>105.0</ele><time>2026-03-30T15:01:46Z</time></trkpt><trkpt lat="49.04982174441499" lon="2.5034883094713054"><ele>104.0</ele><time>2026-03-30T15:01:47Z</time></trkpt><trkpt lat="49.04988644714499" lon="2.503373924718153"><ele>103.0</ele><time>2026-03-30T15:01:48Z</time></trkpt><trkpt lat="49.049951353028966" lon="2.503257545560166"><ele>102.0</ele><time>2026-03-30T15:01:49Z</time></trkpt><trkpt lat="49.05001941927487" lon="2.5031473863679263"><ele>101.0</ele><time>2026-03-30T15:01:50Z</time></trkpt><trkpt lat="49.05008083013658" lon="2.5030420975367784"><ele>100.0</ele><time>2026-03-30T15:01:51Z</time></trkpt><trkpt lat="49.05013632320428" lon="2.5029450887289846"><ele>100.16666666666667</ele><time>2026-03-30T15:01:52Z</time></trkpt><trkpt lat="49.05018014364802" lon="2.50286913980022"><ele>100.33333333333334</ele><time>2026-03-30T15:01:53Z</time></trkpt><trkpt lat="49.050226876314284" lon="2.502789903629068"><ele>100.5</ele><time>2026-03-30T15:01:54Z</time></trkpt><trkpt lat="49.05029757666187" lon="2.502731473810599"><ele>100.66666666666666</ele><time>2026-03-30T15:01:55Z</time></trkpt><trkpt lat="49.0503938147117" lon="2.502673120110153"><ele>100.83333333333333</ele><time>2026-03-30T15:01:56Z</time></trkpt><trkpt lat="49.050483036299276" lon="2.5026285819962184"><ele>101.0</ele><time>2026-03-30T15:01:57Z</time></trkpt><trkpt lat="49.05057540345684" lon="2.5025974902690726"><ele>100.99999999999999</ele><time>2026-03-30T15:01:58Z</time></trkpt><trkpt lat="49.050652192730865" lon="2.50257863152313"><ele>101.0</ele><time>2026-03-30T15:01:59Z</time></trkpt><trkpt lat="49.05073165616138" lon="2.5025559218703903"><ele>101.0</ele><time>2026-03-30T15:02:00Z</time></trkpt><trkpt lat="49.05079824202458" lon="2.5025299946272637"><ele>101.0</ele><time>2026-03-30T15:02:01Z</time></trkpt><trkpt lat="49.05086394188189" lon="2.5025096059969822"><ele>100.99999999999999</ele><time>2026-03-30T15:02:02Z</time></trkpt><trkpt lat="49.05095866881303" lon="2.502494690496436"><ele>101.0</ele><time>2026-03-30T15:02:03.999Z</time></trkpt><trkpt lat="49.05104817934002" lon="2.50247978158976"><ele>101.0</ele><time>2026-03-30T15:02:26.999Z</time></trkpt><trkpt lat="49.05111232766141" lon="2.5024624056585663"><ele>101.0</ele><time>2026-03-30T15:02:28.999Z</time></trkpt><trkpt lat="49.051247147556715" lon="2.502423029532911"><ele>101.0</ele><time>2026-03-30T15:02:30.999Z</time></trkpt><trkpt lat="49.05134022823244" lon="2.5023914233380724"><ele>101.0</ele><time>2026-03-30T15:02:31.999Z</time></trkpt><trkpt lat="49.05143940361073" lon="2.5023541273766408"><ele>101.0</ele><time>2026-03-30T15:02:32.999Z</time></trkpt><trkpt lat="49.051540010083514" lon="2.502314899683423"><ele>101.6</ele><time>2026-03-30T15:02:33.999Z</time></trkpt><trkpt lat="49.051641536175815" lon="2.50225508091293"><ele>102.19999999999999</ele><time>2026-03-30T15:02:34.999Z</time></trkpt><trkpt lat="49.05174956191547" lon="2.5022300977766605"><ele>102.80000000000001</ele><time>2026-03-30T15:02:35.999Z</time></trkpt><trkpt lat="49.05184435335271" lon="2.5022060248641513"><ele>103.4</ele><time>2026-03-30T15:02:36.999Z</time></trkpt><trkpt lat="49.05194021871698" lon="2.5021765773661815"><ele>104.0</ele><time>2026-03-30T15:02:37.999Z</time></trkpt><trkpt lat="49.052026903036044" lon="2.5021439695761036"><ele>103.99999999999999</ele><time>2026-03-30T15:02:38.999Z</time></trkpt><trkpt lat="49.05210607555529" lon="2.502129814232558"><ele>104.0</ele><time>2026-03-30T15:02:39.999Z</time></trkpt><trkpt lat="49.05218596258042" lon="2.5020915348817887"><ele>104.0</ele><time>2026-03-30T15:02:40.999Z</time></trkpt><trkpt lat="49.05227604524643" lon="2.5020803829277845"><ele>104.0</ele><time>2026-03-30T15:02:41.999Z</time></trkpt><trkpt lat="49.05235766554749" lon="2.5020547326875353"><ele>103.99999999999999</ele><time>2026-03-30T15:02:42.999Z</time></trkpt><trkpt lat="49.052438398640795" lon="2.502027974051289"><ele>104.0</ele><time>2026-03-30T15:02:43.999Z</time></trkpt><trkpt lat="49.05250129566502" lon="2.502002472915976"><ele>104.99999999999999</ele><time>2026-03-30T15:02:44.999Z</time></trkpt><trkpt lat="49.05257437974924" lon="2.501980255568818"><ele>106.0</ele><time>2026-03-30T15:02:45.999Z</time></trkpt><trkpt lat="49.05265213068143" lon="2.5019572863875483"><ele>107.0</ele><time>2026-03-30T15:02:46.999Z</time></trkpt><trkpt lat="49.05273984366402" lon="2.501912929238424"><ele>108.0</ele><time>2026-03-30T15:02:48.999Z</time></trkpt><trkpt lat="49.052833847863994" lon="2.501858683990479"><ele>108.99999999999999</ele><time>2026-03-30T15:02:53.999Z</time></trkpt><trkpt lat="49.05292078065845" lon="2.501858450308642"><ele>110.0</ele><time>2026-03-30T15:02:55.999Z</time></trkpt><trkpt lat="49.0530390782902" lon="2.5018268772963377"><ele>109.99999999999999</ele><time>2026-03-30T15:02:57.999Z</time></trkpt><trkpt lat="49.05311103235413" lon="2.501827940910236"><ele>110.0</ele><time>2026-03-30T15:02:58.999Z</time></trkpt><trkpt lat="49.05318723109088" lon="2.5018238014927654"><ele>110.0</ele><time>2026-03-30T15:02:59.999Z</time></trkpt><trkpt lat="49.05326192195883" lon="2.501808449468121"><ele>110.0</ele><time>2026-03-30T15:03:00.999Z</time></trkpt><trkpt lat="49.053338028192826" lon="2.5017838918160846"><ele>109.99999999999999</ele><time>2026-03-30T15:03:01.998Z</time></trkpt><trkpt lat="49.05341894937346" lon="2.501762413321782"><ele>110.0</ele><time>2026-03-30T15:03:02.998Z</time></trkpt><trkpt lat="49.053503448399944" lon="2.5017386124770824"><ele>110.6</ele><time>2026-03-30T15:03:03.998Z</time></trkpt><trkpt lat="49.05358699230643" lon="2.501715037684647"><ele>111.2</ele><time>2026-03-30T15:03:04.998Z</time></trkpt><trkpt lat="49.05367527738617" lon="2.5016890023421325"><ele>111.80000000000001</ele><time>2026-03-30T15:03:05.998Z</time></trkpt><trkpt lat="49.05376617598085" lon="2.5016649156469843"><ele>112.4</ele><time>2026-03-30T15:03:06.998Z</time></trkpt><trkpt lat="49.05386155438403" lon="2.501638487386926"><ele>113.0</ele><time>2026-03-30T15:03:07.998Z</time></trkpt><trkpt lat="49.053958794001446" lon="2.501613622389926"><ele>113.0</ele><time>2026-03-30T15:03:08.998Z</time></trkpt><trkpt lat="49.05405312240873" lon="2.5015895442396556"><ele>113.00000000000001</ele><time>2026-03-30T15:03:09.998Z</time></trkpt><trkpt lat="49.05414574675593" lon="2.5015646059094623"><ele>113.00000000000001</ele><time>2026-03-30T15:03:10.998Z</time></trkpt><trkpt lat="49.05424068189149" lon="2.5015400168839745"><ele>113.0</ele><time>2026-03-30T15:03:11.998Z</time></trkpt><trkpt lat="49.054337204035185" lon="2.5015101200924916"><ele>113.0</ele><time>2026-03-30T15:03:12.998Z</time></trkpt><trkpt lat="49.05443373446481" lon="2.501481621840951"><ele>114.0</ele><time>2026-03-30T15:03:13.998Z</time></trkpt><trkpt lat="49.05454065028937" lon="2.501450417299577"><ele>115.00000000000001</ele><time>2026-03-30T15:03:14.998Z</time></trkpt><trkpt lat="49.05465338918199" lon="2.501426461169098"><ele>116.00000000000001</ele><time>2026-03-30T15:03:15.998Z</time></trkpt><trkpt lat="49.054767732122734" lon="2.5013998255261214"><ele>117.0</ele><time>2026-03-30T15:03:16.998Z</time></trkpt><trkpt lat="49.05487434456914" lon="2.5013741155847096"><ele>118.0</ele><time>2026-03-30T15:03:17.998Z</time></trkpt><trkpt lat="49.05497948811333" lon="2.501346275294378"><ele>118.4</ele><time>2026-03-30T15:03:18.998Z</time></trkpt><trkpt lat="49.05508353804307" lon="2.5013154181847894"><ele>118.80000000000001</ele><time>2026-03-30T15:03:19.998Z</time></trkpt><trkpt lat="49.055189419012166" lon="2.5012854783569827"><ele>119.2</ele><time>2026-03-30T15:03:20.998Z</time></trkpt><trkpt lat="49.05528311215676" lon="2.501263456716339"><ele>119.6</ele><time>2026-03-30T15:03:21.998Z</time></trkpt><trkpt lat="49.055370822266774" lon="2.5012420686477057"><ele>120.0</ele><time>2026-03-30T15:03:22.998Z</time></trkpt><trkpt lat="49.05544718897162" lon="2.501221191356731"><ele>120.0</ele><time>2026-03-30T15:03:23.998Z</time></trkpt><trkpt lat="49.05551721764563" lon="2.5012029448823205"><ele>120.0</ele><time>2026-03-30T15:03:24.998Z</time></trkpt><trkpt lat="49.0555964001694" lon="2.5011774170377716"><ele>120.0</ele><time>2026-03-30T15:03:26Z</time></trkpt><trkpt lat="49.05567514609367" lon="2.501148384718465"><ele>120.0</ele><time>2026-03-30T15:03:27Z</time></trkpt><trkpt lat="49.05575511421431" lon="2.501122934606938"><ele>120.0</ele><time>2026-03-30T15:03:28Z</time></trkpt><trkpt lat="49.05584037268809" lon="2.501110178122363"><ele>120.0</ele><time>2026-03-30T15:03:29Z</time></trkpt><trkpt lat="49.05591565255158" lon="2.5010860519975098"><ele>119.66666666666667</ele><time>2026-03-30T15:03:30Z</time></trkpt><trkpt lat="49.056026416505794" lon="2.5010530034856044"><ele>119.33333333333334</ele><time>2026-03-30T15:03:32Z</time></trkpt><trkpt lat="49.05612991992719" lon="2.5010190599997055"><ele>119.0</ele><time>2026-03-30T15:03:34Z</time></trkpt><trkpt lat="49.05619582706911" lon="2.501023378938982"><ele>118.66666666666667</ele><time>2026-03-30T15:03:36Z</time></trkpt><trkpt lat="49.05627308693532" lon="2.5010024566156255"><ele>118.33333333333334</ele><time>2026-03-30T15:03:40Z</time></trkpt><trkpt lat="49.05635242781439" lon="2.5009809603070052"><ele>118.0</ele><time>2026-03-30T15:03:42Z</time></trkpt><trkpt lat="49.056448172151114" lon="2.5009550199053514"><ele>118.0</ele><time>2026-03-30T15:03:44Z</time></trkpt><trkpt lat="49.05656937497933" lon="2.5008910936534643"><ele>118.0</ele><time>2026-03-30T15:03:46Z</time></trkpt><trkpt lat="49.05672414217402" lon="2.5008457764419245"><ele>118.0</ele><time>2026-03-30T15:03:48Z</time></trkpt><trkpt lat="49.05682317758544" lon="2.5008224610395624"><ele>118.0</ele><time>2026-03-30T15:03:49Z</time></trkpt><trkpt lat="49.05692848098087" lon="2.500801018231103"><ele>117.50000000000001</ele><time>2026-03-30T15:03:50Z</time></trkpt><trkpt lat="49.05703007531014" lon="2.5007773010641468"><ele>117.0</ele><time>2026-03-30T15:03:51Z</time></trkpt><trkpt lat="49.05711590068906" lon="2.5007595190605887"><ele>116.5</ele><time>2026-03-30T15:03:52Z</time></trkpt><trkpt lat="49.05720042656514" lon="2.5007383916978903"><ele>116.0</ele><time>2026-03-30T15:03:53Z</time></trkpt><trkpt lat="49.05726717179548" lon="2.5007189317131506"><ele>115.50000000000001</ele><time>2026-03-30T15:03:54Z</time></trkpt><trkpt lat="49.057366510386444" lon="2.500711741248185"><ele>115.0</ele><time>2026-03-30T15:03:56Z</time></trkpt><trkpt lat="49.05744359169372" lon="2.5007467014906046"><ele>114.83333333333334</ele><time>2026-03-30T15:03:58Z</time></trkpt><trkpt lat="49.057540042011446" lon="2.5008331282099934"><ele>114.66666666666667</ele><time>2026-03-30T15:04:00Z</time></trkpt><trkpt lat="49.05759979156853" lon="2.5008816669727674"><ele>114.5</ele><time>2026-03-30T15:04:01Z</time></trkpt><trkpt lat="49.05766071658858" lon="2.500943390520814"><ele>114.33333333333334</ele><time>2026-03-30T15:04:02Z</time></trkpt><trkpt lat="49.05765569602791" lon="2.501068421658696"><ele>114.16666666666667</ele><time>2026-03-30T15:04:03Z</time></trkpt><trkpt lat="49.05767886801744" lon="2.5011756453283884"><ele>114.0</ele><time>2026-03-30T15:04:04Z</time></trkpt><trkpt lat="49.057701392079544" lon="2.5012798729396155"><ele>114.0</ele><time>2026-03-30T15:04:05Z</time></trkpt><trkpt lat="49.0577634005937" lon="2.50142085129147"><ele>114.0</ele><time>2026-03-30T15:04:06.999Z</time></trkpt><trkpt lat="49.05781924460462" lon="2.5015381971445882"><ele>114.0</ele><time>2026-03-30T15:04:08.999Z</time></trkpt><trkpt lat="49.05791311013351" lon="2.5016596355335583"><ele>114.0</ele><time>2026-03-30T15:04:10.999Z</time></trkpt><trkpt lat="49.0579711446004" lon="2.5017085169341815"><ele>114.0</ele><time>2026-03-30T15:04:11.999Z</time></trkpt><trkpt lat="49.05807267553533" lon="2.501805536636233"><ele>114.0</ele><time>2026-03-30T15:04:13.999Z</time></trkpt><trkpt lat="49.058124865908816" lon="2.5018662912791734"><ele>114.0</ele><time>2026-03-30T15:04:14.999Z</time></trkpt><trkpt lat="49.05818331619546" lon="2.5019126243844396"><ele>114.0</ele><time>2026-03-30T15:04:15.999Z</time></trkpt><trkpt lat="49.058237247348615" lon="2.5019652187287647"><ele>114.0</ele><time>2026-03-30T15:04:16.999Z</time></trkpt><trkpt lat="49.05831967682411" lon="2.502049843866117"><ele>114.0</ele><time>2026-03-30T15:04:18.999Z</time></trkpt><trkpt lat="49.058425884676744" lon="2.5021612030933036"><ele>114.0</ele><time>2026-03-30T15:04:20.999Z</time></trkpt><trkpt lat="49.05851053602652" lon="2.5022450091105624"><ele>114.2</ele><time>2026-03-30T15:04:21.999Z</time></trkpt><trkpt lat="49.05861414627219" lon="2.5023675841223394"><ele>114.4</ele><time>2026-03-30T15:04:22.999Z</time></trkpt><trkpt lat="49.05870699485233" lon="2.5024585954779317"><ele>114.6</ele><time>2026-03-30T15:04:23.999Z</time></trkpt><trkpt lat="49.05878885394624" lon="2.502552512200245"><ele>114.8</ele><time>2026-03-30T15:04:24.999Z</time></trkpt><trkpt lat="49.05886931761205" lon="2.502641217805903"><ele>115.0</ele><time>2026-03-30T15:04:25.999Z</time></trkpt><trkpt lat="49.05894851491055" lon="2.5027278014453556"><ele>115.00000000000001</ele><time>2026-03-30T15:04:26.999Z</time></trkpt><trkpt lat="49.059025317908045" lon="2.502810835795301"><ele>115.0</ele><time>2026-03-30T15:04:27.999Z</time></trkpt><trkpt lat="49.05910294329392" lon="2.502890747691827"><ele>115.0</ele><time>2026-03-30T15:04:28.999Z</time></trkpt><trkpt lat="49.05917019409736" lon="2.502967006466129"><ele>115.0</ele><time>2026-03-30T15:04:29.999Z</time></trkpt><trkpt lat="49.059240247858654" lon="2.5030218606303483"><ele>115.00000000000001</ele><time>2026-03-30T15:04:30.999Z</time></trkpt><trkpt lat="49.05929581258484" lon="2.503087919890328"><ele>115.0</ele><time>2026-03-30T15:04:31.999Z</time></trkpt><trkpt lat="49.05935750336046" lon="2.5031372028727636"><ele>115.0</ele><time>2026-03-30T15:04:32.999Z</time></trkpt><trkpt lat="49.059464785612924" lon="2.5032161049868566"><ele>115.0</ele><time>2026-03-30T15:04:34.999Z</time></trkpt><trkpt lat="49.05957039585807" lon="2.5032800133948157"><ele>115.0</ele><time>2026-03-30T15:04:36.999Z</time></trkpt><trkpt lat="49.05957260595555" lon="2.5035533363777134"><ele>115.0</ele><time>2026-03-30T15:04:38.999Z</time></trkpt><trkpt lat="49.05959480432954" lon="2.5036719681612305"><ele>115.0</ele><time>2026-03-30T15:04:39.999Z</time></trkpt><trkpt lat="49.05959656757417" lon="2.503773802329922"><ele>115.0</ele><time>2026-03-30T15:04:40.999Z</time></trkpt><trkpt lat="49.05959841878498" lon="2.5039057461986394"><ele>115.0</ele><time>2026-03-30T15:04:42.999Z</time></trkpt><trkpt lat="49.059726849605795" lon="2.50394207890803"><ele>115.0</ele><time>2026-03-30T15:04:44.999Z</time></trkpt><trkpt lat="49.059844558632776" lon="2.5039428481270587"><ele>115.0</ele><time>2026-03-30T15:04:46.999Z</time></trkpt><trkpt lat="49.05996296234717" lon="2.503934431707717"><ele>115.4</ele><time>2026-03-30T15:04:48.999Z</time></trkpt><trkpt lat="49.0600275887475" lon="2.5039330098675925"><ele>115.8</ele><time>2026-03-30T15:04:49.999Z</time></trkpt><trkpt lat="49.06013255673102" lon="2.503948140391148"><ele>116.19999999999999</ele><time>2026-03-30T15:04:51.999Z</time></trkpt><trkpt lat="49.06022382224769" lon="2.5039937263283476"><ele>116.6</ele><time>2026-03-30T15:04:53.999Z</time></trkpt><trkpt lat="49.060280729159125" lon="2.504085877412761"><ele>117.0</ele><time>2026-03-30T15:04:55.999Z</time></trkpt><trkpt lat="49.06034691163762" lon="2.504204427534335"><ele>117.0</ele><time>2026-03-30T15:04:57.999Z</time></trkpt><trkpt lat="49.06038765146525" lon="2.5042787389898935"><ele>116.99999999999999</ele><time>2026-03-30T15:04:58.999Z</time></trkpt><trkpt lat="49.060464498466224" lon="2.5044246849859744"><ele>116.99999999999999</ele><time>2026-03-30T15:05:00.998Z</time></trkpt><trkpt lat="49.06055080369807" lon="2.5045262949379974"><ele>117.0</ele><time>2026-03-30T15:05:02.998Z</time></trkpt><trkpt lat="49.06061676376481" lon="2.5046385478872613"><ele>117.0</ele><time>2026-03-30T15:05:04.998Z</time></trkpt><trkpt lat="49.06066512467156" lon="2.5047818070447416"><ele>118.0</ele><time>2026-03-30T15:05:06.998Z</time></trkpt><trkpt lat="49.06068447807392" lon="2.504936722019201"><ele>118.0</ele><time>2026-03-30T15:05:08.998Z</time></trkpt><trkpt lat="49.060703042489386" lon="2.5050564974448486"><ele>118.0</ele><time>2026-03-30T15:05:10.998Z</time></trkpt><trkpt lat="49.060662812768165" lon="2.505130526668425"><ele>118.0</ele><time>2026-03-30T15:05:14.998Z</time></trkpt></trkseg></trk></gpx>